Wetterdaten: Freitag, 01.10.2021
Datum Zeit Temp. Aussen Temp. o. S. Temp +5cm Feuchte Auss Luftdruck Regen Sonnenschein Regendauer Solar Windben Empfang
01.10.2021 00:00 11,3 C 10,6 C 8,9 C 81 % 1022,1 hPa 0,0 l/m 0 min 0 min 0 W/m 9,7 km/h (2 Bft) 100,00 %
01.10.2021 00:02 11,3 C 10,6 C 8,9 C 81 % 1022,1 hPa 0,0 l/m 0 min 0 min 0 W/m 6,4 km/h (2 Bft) 100,00 %
01.10.2021 00:04 11,3 C 10,6 C 8,9 C 81 % 1022,1 hPa 0,0 l/m 0 min 0 min 0 W/m 6,4 km/h (2 Bft) 97,87 %
01.10.2021 00:08 11,3 C 10,6 C 8,9 C 81 % 1022,1 hPa 0,0 l/m 0 min 0 min 0 W/m 16,1 km/h (3 Bft) 97,89 %
01.10.2021 00:10 11,2 C 10,6 C 8,9 C 81 % 1022,0 hPa 0,0 l/m 0 min 0 min 0 W/m 6,4 km/h (2 Bft) 97,87 %
01.10.2021 00:12 11,2 C 10,6 C 8,9 C 81 % 1022,0 hPa 0,0 l/m 0 min 0 min 0 W/m 6,4 km/h (2 Bft) 97,87 %
01.10.2021 00:14 11,2 C 10,6 C 8,9 C 81 % 1022,0 hPa 0,0 l/m 0 min 0 min 0 W/m 6,4 km/h (2 Bft) 95,74 %
01.10.2021 00:16 11,1 C 10,6 C 8,9 C 81 % 1021,9 hPa 0,0 l/m 0 min 0 min 0 W/m 12,9 km/h (3 Bft) 95,74 %
01.10.2021 00:18 11,1 C 10,6 C 8,9 C 81 % 1021,9 hPa 0,0 l/m 0 min 0 min 0 W/m 6,4 km/h (2 Bft) 97,83 %
01.10.2021 00:20 11,1 C 10,0 C 8,9 C 81 % 1022,0 hPa 0,0 l/m 0 min 0 min 0 W/m 6,4 km/h (2 Bft) 97,87 %
01.10.2021 00:22 11,1 C 10,0 C 8,9 C 81 % 1021,9 hPa 0,0 l/m 0 min 0 min 0 W/m 6,4 km/h (2 Bft) 97,87 %
01.10.2021 00:24 11,1 C 10,0 C 8,9 C 81 % 1021,9 hPa 0,0 l/m 0 min 0 min 0 W/m 9,7 km/h (2 Bft) 97,87 %
01.10.2021 00:26 11,1 C 10,0 C 8,9 C 81 % 1021,9 hPa 0,0 l/m 0 min 0 min 0 W/m 6,4 km/h (2 Bft) 97,87 %
01.10.2021 00:28 11,0 C 10,0 C 8,9 C 81 % 1021,9 hPa 0,0 l/m 0 min 0 min 0 W/m 6,4 km/h (2 Bft) 97,83 %
01.10.2021 00:30 11,0 C 10,0 C 8,9 C 81 % 1021,9 hPa 0,0 l/m 0 min 0 min 0 W/m 6,4 km/h (2 Bft) 95,74 %
01.10.2021 00:32 11,0 C 10,0 C 8,9 C 81 % 1021,9 hPa 0,0 l/m 0 min 0 min 0 W/m 9,7 km/h (2 Bft) 97,87 %
01.10.2021 00:34 11,0 C 10,0 C 8,9 C 81 % 1021,8 hPa 0,0 l/m 0 min 0 min 0 W/m 6,4 km/h (2 Bft) 97,87 %
01.10.2021 00:36 11,0 C 10,0 C 8,9 C 81 % 1021,8 hPa 0,0 l/m 0 min 0 min 0 W/m 9,7 km/h (2 Bft) 100,00 %
01.10.2021 00:38 11,0 C 10,0 C 8,9 C 81 % 1021,8 hPa 0,0 l/m 0 min 0 min 0 W/m 9,7 km/h (2 Bft) 100,00 %
01.10.2021 00:40 11,0 C 10,0 C 8,9 C 81 % 1021,8 hPa 0,0 l/m 0 min 0 min 0 W/m 6,4 km/h (2 Bft) 100,00 %
01.10.2021 00:42 11,0 C 10,0 C 8,9 C 81 % 1021,8 hPa 0,0 l/m 0 min 0 min 0 W/m 6,4 km/h (2 Bft) 100,00 %
01.10.2021 00:44 11,0 C 10,0 C 8,9 C 81 % 1021,8 hPa 0,0 l/m 0 min 0 min 0 W/m 6,4 km/h (2 Bft) 100,00 %
01.10.2021 00:46 11,0 C 10,0 C 8,9 C 81 % 1021,9 hPa 0,0 l/m 0 min 0 min 0 W/m 9,7 km/h (2 Bft) 100,00 %
01.10.2021 00:48 11,0 C 10,6 C 8,9 C 81 % 1021,9 hPa 0,0 l/m 0 min 0 min 0 W/m 6,4 km/h (2 Bft) 100,00 %
01.10.2021 00:50 11,0 C 10,6 C 8,9 C 82 % 1021,8 hPa 0,0 l/m 0 min 0 min 0 W/m 9,7 km/h (2 Bft) 100,00 %
01.10.2021 00:52 11,0 C 10,6 C 8,9 C 82 % 1021,8 hPa 0,0 l/m 0 min 0 min 0 W/m 9,7 km/h (2 Bft) 100,00 %
01.10.2021 00:54 11,0 C 10,6 C 8,9 C 82 % 1021,9 hPa 0,0 l/m 0 min 0 min 0 W/m 6,4 km/h (2 Bft) 100,00 %
01.10.2021 00:56 11,0 C 10,6 C 8,9 C 82 % 1021,9 hPa 0,0 l/m 0 min 0 min 0 W/m 3,2 km/h (1 Bft) 100,00 %
01.10.2021 00:58 11,0 C 10,6 C 8,9 C 82 % 1021,9 hPa 0,0 l/m 0 min 0 min 0 W/m 12,9 km/h (3 Bft) 100,00 %
01.10.2021 01:00 11,0 C 10,6 C 8,9 C 82 % 1021,8 hPa 0,0 l/m 0 min 0 min 0 W/m 6,4 km/h (2 Bft) 100,00 %
01.10.2021 01:02 11,0 C 10,6 C 8,9 C 82 % 1021,9 hPa 0,0 l/m 0 min 0 min 0 W/m 12,9 km/h (3 Bft) 100,00 %
01.10.2021 01:04 11,0 C 10,6 C 8,9 C 82 % 1021,9 hPa 0,0 l/m 0 min 0 min 0 W/m 6,4 km/h (2 Bft) 100,00 %
01.10.2021 01:06 11,0 C 10,6 C 8,9 C 82 % 1021,8 hPa 0,0 l/m 0 min 0 min 0 W/m 9,7 km/h (2 Bft) 100,00 %
01.10.2021 01:08 11,0 C 10,6 C 8,9 C 82 % 1021,8 hPa 0,0 l/m 0 min 0 min 0 W/m 6,4 km/h (2 Bft) 100,00 %
01.10.2021 01:10 11,0 C 10,6 C 8,9 C 82 % 1021,8 hPa 0,0 l/m 0 min 0 min 0 W/m 12,9 km/h (3 Bft) 100,00 %
01.10.2021 01:12 11,0 C 10,6 C 8,9 C 82 % 1021,8 hPa 0,0 l/m 0 min 0 min 0 W/m 6,4 km/h (2 Bft) 100,00 %
01.10.2021 01:14 11,0 C 10,6 C 8,9 C 82 % 1021,8 hPa 0,0 l/m 0 min 0 min 0 W/m 6,4 km/h (2 Bft) 100,00 %
01.10.2021 01:16 11,0 C 10,6 C 8,9 C 82 % 1021,7 hPa 0,0 l/m 0 min 0 min 0 W/m 6,4 km/h (2 Bft) 95,65 %
01.10.2021 01:18 11,1 C 10,6 C 8,9 C 82 % 1021,8 hPa 0,0 l/m 0 min 0 min 0 W/m 6,4 km/h (2 Bft) 97,87 %
01.10.2021 01:20 11,1 C 10,6 C 8,9 C 82 % 1021,7 hPa 0,0 l/m 0 min 0 min 0 W/m 9,7 km/h (2 Bft) 95,74 %
01.10.2021 01:22 11,1 C 10,6 C 8,9 C 82 % 1021,7 hPa 0,0 l/m 0 min 0 min 0 W/m 12,9 km/h (3 Bft) 97,87 %
01.10.2021 01:24 11,1 C 10,6 C 8,9 C 82 % 1021,7 hPa 0,0 l/m 0 min 0 min 0 W/m 6,4 km/h (2 Bft) 95,74 %
01.10.2021 01:26 11,1 C 10,6 C 8,9 C 82 % 1021,7 hPa 0,0 l/m 0 min 0 min 0 W/m 9,7 km/h (2 Bft) 95,74 %
01.10.2021 01:28 11,1 C 10,6 C 8,9 C 82 % 1021,7 hPa 0,0 l/m 0 min 0 min 0 W/m 6,4 km/h (2 Bft) 97,83 %
01.10.2021 01:30 11,1 C 10,6 C 8,9 C 82 % 1021,6 hPa 0,0 l/m 0 min 0 min 0 W/m 12,9 km/h (3 Bft) 97,87 %
01.10.2021 01:32 11,1 C 10,6 C 8,9 C 81 % 1021,6 hPa 0,0 l/m 0 min 0 min 0 W/m 9,7 km/h (2 Bft) 97,87 %
01.10.2021 01:34 11,1 C 10,6 C 8,9 C 81 % 1021,6 hPa 0,0 l/m 0 min 0 min 0 W/m 6,4 km/h (2 Bft) 97,87 %
01.10.2021 01:36 11,1 C 10,6 C 8,9 C 81 % 1021,6 hPa 0,0 l/m 0 min 0 min 0 W/m 12,9 km/h (3 Bft) 97,87 %
01.10.2021 01:38 11,2 C 10,6 C 8,9 C 81 % 1021,6 hPa 0,0 l/m 0 min 0 min 0 W/m 12,9 km/h (3 Bft) 97,87 %
01.10.2021 01:40 11,1 C 10,6 C 8,9 C 81 % 1021,6 hPa 0,0 l/m 0 min 0 min 0 W/m 9,7 km/h (2 Bft) 93,48 %
01.10.2021 01:42 11,2 C 10,6 C 8,9 C 81 % 1021,5 hPa 0,0 l/m 0 min 0 min 0 W/m 9,7 km/h (2 Bft) 93,62 %
01.10.2021 01:44 11,2 C 10,6 C 8,9 C 81 % 1021,5 hPa 0,0 l/m 0 min 0 min 0 W/m 12,9 km/h (3 Bft) 95,74 %
01.10.2021 01:46 11,2 C 10,6 C 8,9 C 81 % 1021,5 hPa 0,0 l/m 0 min 0 min 0 W/m 6,4 km/h (2 Bft) 95,74 %
01.10.2021 01:48 11,2 C 10,6 C 8,9 C 81 % 1021,5 hPa 0,0 l/m 0 min 0 min 0 W/m 6,4 km/h (2 Bft) 95,74 %
01.10.2021 01:50 11,3 C 10,6 C 8,9 C 81 % 1021,4 hPa 0,0 l/m 0 min 0 min 0 W/m 12,9 km/h (3 Bft) 95,65 %
01.10.2021 01:52 11,3 C 10,6 C 8,9 C 81 % 1021,4 hPa 0,0 l/m 0 min 0 min 0 W/m 9,7 km/h (2 Bft) 93,62 %
01.10.2021 01:54 11,3 C 10,6 C 8,9 C 81 % 1021,3 hPa 0,0 l/m 0 min 0 min 0 W/m 16,1 km/h (3 Bft) 95,74 %
01.10.2021 01:56 11,3 C 10,6 C 8,9 C 81 % 1021,3 hPa 0,0 l/m 0 min 0 min 0 W/m 6,4 km/h (2 Bft) 93,62 %
01.10.2021 01:58 11,3 C 10,6 C 8,9 C 81 % 1021,3 hPa 0,0 l/m 0 min 0 min 0 W/m 6,4 km/h (2 Bft) 93,62 %
01.10.2021 02:00 11,3 C 10,6 C 8,9 C 81 % 1021,2 hPa 0,0 l/m 0 min 0 min 0 W/m 12,9 km/h (3 Bft) 91,49 %
01.10.2021 02:02 11,3 C 10,6 C 8,9 C 81 % 1021,2 hPa 0,0 l/m 0 min 0 min 0 W/m 6,4 km/h (2 Bft) 91,49 %
01.10.2021 02:04 11,3 C 10,6 C 8,9 C 81 % 1021,2 hPa 0,0 l/m 0 min 0 min 0 W/m 3,2 km/h (1 Bft) 93,62 %
01.10.2021 02:06 11,3 C 10,6 C 8,9 C 81 % 1021,1 hPa 0,0 l/m 0 min 0 min 0 W/m 6,4 km/h (2 Bft) 93,62 %
01.10.2021 02:08 11,3 C 10,6 C 8,9 C 81 % 1021,1 hPa 0,0 l/m 0 min 0 min 0 W/m 6,4 km/h (2 Bft) 95,74 %
01.10.2021 02:10 11,3 C 10,0 C 8,9 C 81 % 1021,1 hPa 0,0 l/m 0 min 0 min 0 W/m 6,4 km/h (2 Bft) 95,74 %
01.10.2021 02:12 11,3 C 10,0 C 8,9 C 81 % 1021,1 hPa 0,0 l/m 0 min 0 min 0 W/m 6,4 km/h (2 Bft) 93,62 %
01.10.2021 02:14 11,2 C 10,0 C 8,9 C 81 % 1021,1 hPa 0,0 l/m 0 min 0 min 0 W/m 6,4 km/h (2 Bft) 95,65 %
01.10.2021 02:16 11,1 C 10,0 C 8,9 C 81 % 1021,0 hPa 0,0 l/m 0 min 0 min 0 W/m 9,7 km/h (2 Bft) 93,62 %
01.10.2021 02:18 11,1 C 10,0 C 8,9 C 82 % 1021,0 hPa 0,0 l/m 0 min 0 min 0 W/m 12,9 km/h (3 Bft) 93,75 %
01.10.2021 02:20 11,0 C 10,0 C 8,4 C 82 % 1021,0 hPa 0,0 l/m 0 min 0 min 0 W/m 6,4 km/h (2 Bft) 93,62 %
01.10.2021 02:22 11,0 C 10,0 C 8,4 C 82 % 1020,9 hPa 0,0 l/m 0 min 0 min 0 W/m 12,9 km/h (3 Bft) 95,74 %
01.10.2021 02:24 10,9 C 10,0 C 8,4 C 82 % 1020,9 hPa 0,0 l/m 0 min 0 min 0 W/m 9,7 km/h (2 Bft) 97,87 %
01.10.2021 02:26 10,9 C 10,0 C 8,4 C 82 % 1020,9 hPa 0,0 l/m 0 min 0 min 0 W/m 3,2 km/h (1 Bft) 100,00 %
01.10.2021 02:28 10,8 C 10,0 C 8,4 C 82 % 1020,9 hPa 0,0 l/m 0 min 0 min 0 W/m 12,9 km/h (3 Bft) 97,87 %
01.10.2021 02:30 10,8 C 10,0 C 8,4 C 83 % 1020,8 hPa 0,0 l/m 0 min 0 min 0 W/m 6,4 km/h (2 Bft) 100,00 %
01.10.2021 02:32 10,8 C 10,0 C 8,4 C 83 % 1020,8 hPa 0,0 l/m 0 min 0 min 0 W/m 6,4 km/h (2 Bft) 57,45 %
01.10.2021 02:34 10,7 C 10,0 C 8,4 C 83 % 1020,8 hPa 0,0 l/m 0 min 0 min 0 W/m 3,2 km/h (1 Bft) 100,00 %
01.10.2021 02:36 10,7 C 9,4 C 8,4 C 83 % 1020,7 hPa 0,0 l/m 0 min 0 min 0 W/m 9,7 km/h (2 Bft) 100,00 %
01.10.2021 02:38 10,6 C 9,4 C 8,4 C 83 % 1020,7 hPa 0,0 l/m 0 min 0 min 0 W/m 6,4 km/h (2 Bft) 100,00 %
01.10.2021 02:40 10,6 C 9,4 C 8,4 C 83 % 1020,8 hPa 0,0 l/m 0 min 0 min 0 W/m 6,4 km/h (2 Bft) 100,00 %
01.10.2021 02:42 10,6 C 9,4 C 8,4 C 83 % 1020,8 hPa 0,0 l/m 0 min 0 min 0 W/m 6,4 km/h (2 Bft) 100,00 %
01.10.2021 02:44 10,5 C 9,4 C 8,4 C 83 % 1020,7 hPa 0,0 l/m 0 min 0 min 0 W/m 12,9 km/h (3 Bft) 97,87 %
01.10.2021 02:46 10,5 C 9,4 C 8,4 C 83 % 1020,7 hPa 0,0 l/m 0 min 0 min 0 W/m 6,4 km/h (2 Bft) 100,00 %
01.10.2021 02:48 10,5 C 9,4 C 8,4 C 84 % 1020,7 hPa 0,0 l/m 0 min 0 min 0 W/m 6,4 km/h (2 Bft) 100,00 %
01.10.2021 02:50 10,5 C 9,4 C 8,4 C 84 % 1020,6 hPa 0,0 l/m 0 min 0 min 0 W/m 12,9 km/h (3 Bft) 97,87 %
01.10.2021 02:52 10,5 C 9,4 C 8,4 C 84 % 1020,6 hPa 0,0 l/m 0 min 0 min 0 W/m 12,9 km/h (3 Bft) 100,00 %
01.10.2021 02:54 10,4 C 9,4 C 8,4 C 84 % 1020,6 hPa 0,0 l/m 0 min 0 min 0 W/m 6,4 km/h (2 Bft) 100,00 %
01.10.2021 02:56 10,4 C 9,4 C 8,4 C 84 % 1020,6 hPa 0,0 l/m 0 min 0 min 0 W/m 6,4 km/h (2 Bft) 100,00 %
01.10.2021 02:58 10,4 C 9,4 C 8,4 C 84 % 1020,6 hPa 0,0 l/m 0 min 0 min 0 W/m 6,4 km/h (2 Bft) 100,00 %
01.10.2021 03:00 10,3 C 9,4 C 8,4 C 84 % 1020,5 hPa 0,0 l/m 0 min 0 min 0 W/m 6,4 km/h (2 Bft) 100,00 %
01.10.2021 03:02 10,3 C 9,4 C 8,4 C 84 % 1020,5 hPa 0,0 l/m 0 min 0 min 0 W/m 6,4 km/h (2 Bft) 97,83 %
01.10.2021 03:04 10,3 C 9,4 C 8,4 C 84 % 1020,5 hPa 0,0 l/m 0 min 0 min 0 W/m 6,4 km/h (2 Bft) 100,00 %
01.10.2021 03:06 10,2 C 9,4 C 8,4 C 85 % 1020,5 hPa 0,0 l/m 0 min 0 min 0 W/m 6,4 km/h (2 Bft) 100,00 %
01.10.2021 03:08 10,2 C 9,4 C 7,8 C 85 % 1020,5 hPa 0,0 l/m 0 min 0 min 0 W/m 6,4 km/h (2 Bft) 100,00 %
01.10.2021 03:10 10,1 C 9,4 C 7,8 C 85 % 1020,5 hPa 0,0 l/m 0 min 0 min 0 W/m 3,2 km/h (1 Bft) 100,00 %
01.10.2021 03:12 10,1 C 9,4 C 7,8 C 85 % 1020,5 hPa 0,0 l/m 0 min 0 min 0 W/m 6,4 km/h (2 Bft) 100,00 %
01.10.2021 03:14 10,1 C 8,9 C 7,8 C 85 % 1020,5 hPa 0,0 l/m 0 min 0 min 0 W/m 6,4 km/h (2 Bft) 100,00 %
01.10.2021 03:16 10,0 C 8,9 C 7,8 C 85 % 1020,5 hPa 0,0 l/m 0 min 0 min 0 W/m 6,4 km/h (2 Bft) 100,00 %
01.10.2021 03:18 10,0 C 8,9 C 7,8 C 85 % 1020,5 hPa 0,0 l/m 0 min 0 min 0 W/m 6,4 km/h (2 Bft) 100,00 %
01.10.2021 03:20 10,0 C 8,9 C 7,8 C 85 % 1020,5 hPa 0,0 l/m 0 min 0 min 0 W/m 6,4 km/h (2 Bft) 100,00 %
01.10.2021 03:22 10,0 C 8,9 C 7,8 C 86 % 1020,5 hPa 0,0 l/m 0 min 0 min 0 W/m 6,4 km/h (2 Bft) 100,00 %
01.10.2021 03:24 10,0 C 8,9 C 7,8 C 85 % 1020,5 hPa 0,0 l/m 0 min 0 min 0 W/m 6,4 km/h (2 Bft) 97,83 %
01.10.2021 03:26 9,9 C 8,9 C 7,8 C 86 % 1020,4 hPa 0,0 l/m 0 min 0 min 0 W/m 12,9 km/h (3 Bft) 100,00 %
01.10.2021 03:28 9,9 C 8,9 C 7,8 C 86 % 1020,5 hPa 0,0 l/m 0 min 0 min 0 W/m 6,4 km/h (2 Bft) 100,00 %
01.10.2021 03:30 9,9 C 8,9 C 7,8 C 86 % 1020,4 hPa 0,0 l/m 0 min 0 min 0 W/m 6,4 km/h (2 Bft) 100,00 %
01.10.2021 03:32 9,9 C 8,9 C 7,8 C 86 % 1020,4 hPa 0,0 l/m 0 min 0 min 0 W/m 12,9 km/h (3 Bft) 100,00 %
01.10.2021 03:34 9,9 C 8,9 C 7,8 C 86 % 1020,4 hPa 0,0 l/m 0 min 0 min 0 W/m 12,9 km/h (3 Bft) 100,00 %
01.10.2021 03:36 9,9 C 8,9 C 7,8 C 86 % 1020,3 hPa 0,0 l/m 0 min 0 min 0 W/m 16,1 km/h (3 Bft) 97,83 %
01.10.2021 03:38 9,8 C 8,9 C 7,8 C 86 % 1020,3 hPa 0,0 l/m 0 min 0 min 0 W/m 6,4 km/h (2 Bft) 100,00 %
01.10.2021 03:40 9,8 C 8,9 C 7,8 C 86 % 1020,3 hPa 0,0 l/m 0 min 0 min 0 W/m 12,9 km/h (3 Bft) 100,00 %
01.10.2021 03:42 9,8 C 8,9 C 7,8 C 86 % 1020,3 hPa 0,0 l/m 0 min 0 min 0 W/m 6,4 km/h (2 Bft) 100,00 %
01.10.2021 03:44 9,8 C 8,9 C 7,8 C 86 % 1020,3 hPa 0,0 l/m 0 min 0 min 0 W/m 6,4 km/h (2 Bft) 97,87 %
01.10.2021 03:46 9,8 C 8,9 C 7,8 C 86 % 1020,3 hPa 0,0 l/m 0 min 0 min 0 W/m 6,4 km/h (2 Bft) 93,62 %
01.10.2021 03:48 9,8 C 8,9 C 7,8 C 86 % 1020,2 hPa 0,0 l/m 0 min 0 min 0 W/m 12,9 km/h (3 Bft) 97,83 %
01.10.2021 03:50 9,7 C 8,9 C 7,8 C 86 % 1020,3 hPa 0,0 l/m 0 min 0 min 0 W/m 12,9 km/h (3 Bft) 97,87 %
01.10.2021 03:52 9,7 C 8,9 C 7,8 C 86 % 1020,2 hPa 0,0 l/m 0 min 0 min 0 W/m 6,4 km/h (2 Bft) 97,87 %
01.10.2021 03:54 9,6 C 8,9 C 7,8 C 86 % 1020,2 hPa 0,0 l/m 0 min 0 min 0 W/m 12,9 km/h (3 Bft) 97,87 %
01.10.2021 03:56 9,6 C 8,9 C 7,8 C 86 % 1020,2 hPa 0,0 l/m 0 min 0 min 0 W/m 6,4 km/h (2 Bft) 97,87 %
01.10.2021 03:58 9,6 C 8,9 C 7,8 C 86 % 1020,1 hPa 0,0 l/m 0 min 0 min 0 W/m 6,4 km/h (2 Bft) 95,74 %
01.10.2021 04:00 9,6 C 8,9 C 7,8 C 86 % 1020,2 hPa 0,0 l/m 0 min 0 min 0 W/m 6,4 km/h (2 Bft) 97,83 %
01.10.2021 04:02 9,6 C 8,9 C 7,8 C 86 % 1020,1 hPa 0,0 l/m 0 min 0 min 0 W/m 12,9 km/h (3 Bft) 100,00 %
01.10.2021 04:04 9,5 C 8,9 C 7,8 C 87 % 1020,1 hPa 0,0 l/m 0 min 0 min 0 W/m 6,4 km/h (2 Bft) 100,00 %
01.10.2021 04:06 9,5 C 8,9 C 7,8 C 87 % 1020,1 hPa 0,0 l/m 0 min 0 min 0 W/m 6,4 km/h (2 Bft) 95,74 %
01.10.2021 04:08 9,5 C 8,9 C 7,8 C 87 % 1020,0 hPa 0,0 l/m 0 min 0 min 0 W/m 6,4 km/h (2 Bft) 95,74 %
01.10.2021 04:10 9,5 C 8,3 C 7,8 C 87 % 1020,0 hPa 0,0 l/m 0 min 0 min 0 W/m 6,4 km/h (2 Bft) 97,87 %
01.10.2021 04:12 9,4 C 8,3 C 7,3 C 87 % 1020,0 hPa 0,0 l/m 0 min 0 min 0 W/m 12,9 km/h (3 Bft) 95,65 %
01.10.2021 04:14 9,4 C 8,3 C 7,3 C 87 % 1020,0 hPa 0,0 l/m 0 min 0 min 0 W/m 6,4 km/h (2 Bft) 97,87 %
01.10.2021 04:16 9,4 C 8,3 C 7,3 C 87 % 1019,9 hPa 0,0 l/m 0 min 0 min 0 W/m 3,2 km/h (1 Bft) 97,87 %
01.10.2021 04:18 9,4 C 8,3 C 7,3 C 87 % 1019,9 hPa 0,0 l/m 0 min 0 min 0 W/m 6,4 km/h (2 Bft) 97,87 %
01.10.2021 04:20 9,4 C 8,3 C 7,3 C 87 % 1019,8 hPa 0,0 l/m 0 min 0 min 0 W/m 6,4 km/h (2 Bft) 97,87 %
01.10.2021 04:22 9,4 C 8,3 C 7,3 C 87 % 1019,8 hPa 0,0 l/m 0 min 0 min 0 W/m 9,7 km/h (2 Bft) 97,83 %
01.10.2021 04:24 9,3 C 8,3 C 7,3 C 87 % 1019,8 hPa 0,0 l/m 0 min 0 min 0 W/m 12,9 km/h (3 Bft) 95,74 %
01.10.2021 04:26 9,3 C 8,3 C 7,3 C 87 % 1019,8 hPa 0,0 l/m 0 min 0 min 0 W/m 12,9 km/h (3 Bft) 95,74 %
01.10.2021 04:28 9,3 C 8,3 C 7,3 C 87 % 1019,8 hPa 0,0 l/m 0 min 0 min 0 W/m 6,4 km/h (2 Bft) 95,74 %
01.10.2021 04:30 9,3 C 8,3 C 7,3 C 87 % 1019,7 hPa 0,0 l/m 0 min 0 min 0 W/m 6,4 km/h (2 Bft) 95,74 %
01.10.2021 04:32 9,3 C 8,3 C 7,3 C 87 % 1019,7 hPa 0,0 l/m 0 min 0 min 0 W/m 6,4 km/h (2 Bft) 95,74 %
01.10.2021 04:34 9,2 C 8,3 C 7,3 C 87 % 1019,7 hPa 0,0 l/m 0 min 0 min 0 W/m 6,4 km/h (2 Bft) 95,65 %
01.10.2021 04:36 9,2 C 8,3 C 7,3 C 87 % 1019,7 hPa 0,0 l/m 0 min 0 min 0 W/m 6,4 km/h (2 Bft) 91,49 %
01.10.2021 04:38 9,2 C 8,3 C 7,3 C 87 % 1019,7 hPa 0,0 l/m 0 min 0 min 0 W/m 12,9 km/h (3 Bft) 95,74 %
01.10.2021 04:40 9,2 C 8,3 C 7,3 C 87 % 1019,7 hPa 0,0 l/m 0 min 0 min 0 W/m 3,2 km/h (1 Bft) 93,62 %
01.10.2021 04:42 9,1 C 8,3 C 7,3 C 87 % 1019,7 hPa 0,0 l/m 0 min 0 min 0 W/m 6,4 km/h (2 Bft) 91,49 %
01.10.2021 04:44 9,1 C 8,3 C 7,3 C 87 % 1019,7 hPa 0,0 l/m 0 min 0 min 0 W/m 6,4 km/h (2 Bft) 95,74 %
01.10.2021 04:46 9,1 C 8,3 C 7,3 C 87 % 1019,7 hPa 0,0 l/m 0 min 0 min 0 W/m 12,9 km/h (3 Bft) 93,48 %
01.10.2021 04:48 9,1 C 8,3 C 7,3 C 87 % 1019,6 hPa 0,0 l/m 0 min 0 min 0 W/m 6,4 km/h (2 Bft) 95,74 %
01.10.2021 04:50 9,1 C 8,3 C 7,3 C 87 % 1019,6 hPa 0,0 l/m 0 min 0 min 0 W/m 6,4 km/h (2 Bft) 95,74 %
01.10.2021 04:52 9,1 C 8,3 C 7,3 C 88 % 1019,5 hPa 0,0 l/m 0 min 0 min 0 W/m 16,1 km/h (3 Bft) 93,62 %
01.10.2021 04:54 9,1 C 8,3 C 7,3 C 88 % 1019,6 hPa 0,0 l/m 0 min 0 min 0 W/m 9,7 km/h (2 Bft) 97,87 %
01.10.2021 04:56 9,1 C 8,3 C 7,3 C 88 % 1019,5 hPa 0,0 l/m 0 min 0 min 0 W/m 6,4 km/h (2 Bft) 97,87 %
01.10.2021 04:58 9,1 C 8,3 C 7,3 C 88 % 1019,5 hPa 0,0 l/m 0 min 0 min 0 W/m 6,4 km/h (2 Bft) 95,65 %
01.10.2021 05:00 9,1 C 8,3 C 7,3 C 88 % 1019,5 hPa 0,0 l/m 0 min 0 min 0 W/m 19,3 km/h (3 Bft) 97,87 %
01.10.2021 05:02 9,1 C 8,3 C 7,3 C 88 % 1019,4 hPa 0,0 l/m 0 min 0 min 0 W/m 3,2 km/h (1 Bft) 97,87 %
01.10.2021 05:04 9,1 C 8,3 C 7,3 C 88 % 1019,5 hPa 0,0 l/m 0 min 0 min 0 W/m 6,4 km/h (2 Bft) 97,87 %
01.10.2021 05:06 9,1 C 8,3 C 7,3 C 88 % 1019,5 hPa 0,0 l/m 0 min 0 min 0 W/m 6,4 km/h (2 Bft) 97,87 %
01.10.2021 05:08 9,1 C 8,3 C 7,3 C 88 % 1019,5 hPa 0,0 l/m 0 min 0 min 0 W/m 12,9 km/h (3 Bft) 97,87 %
01.10.2021 05:10 9,1 C 8,3 C 7,3 C 87 % 1019,4 hPa 0,0 l/m 0 min 0 min 0 W/m 6,4 km/h (2 Bft) 95,65 %
01.10.2021 05:12 9,1 C 8,3 C 7,3 C 87 % 1019,4 hPa 0,0 l/m 0 min 0 min 0 W/m 6,4 km/h (2 Bft) 97,87 %
01.10.2021 05:14 9,1 C 8,3 C 7,3 C 87 % 1019,4 hPa 0,0 l/m 0 min 0 min 0 W/m 12,9 km/h (3 Bft) 95,74 %
01.10.2021 05:16 9,1 C 8,3 C 7,3 C 87 % 1019,4 hPa 0,0 l/m 0 min 0 min 0 W/m 3,2 km/h (1 Bft) 97,87 %
01.10.2021 05:18 9,1 C 8,3 C 7,3 C 87 % 1019,3 hPa 0,0 l/m 0 min 0 min 0 W/m 6,4 km/h (2 Bft) 100,00 %
01.10.2021 05:20 9,1 C 8,3 C 7,3 C 88 % 1019,4 hPa 0,0 l/m 0 min 0 min 0 W/m 12,9 km/h (3 Bft) 100,00 %
01.10.2021 05:22 9,1 C 8,9 C 7,3 C 88 % 1019,3 hPa 0,0 l/m 0 min 0 min 0 W/m 12,9 km/h (3 Bft) 100,00 %
01.10.2021 05:24 9,1 C 8,9 C 7,8 C 88 % 1019,3 hPa 0,0 l/m 0 min 0 min 0 W/m 6,4 km/h (2 Bft) 97,87 %
01.10.2021 05:26 9,1 C 8,9 C 7,8 C 88 % 1019,3 hPa 0,0 l/m 0 min 0 min 0 W/m 3,2 km/h (1 Bft) 100,00 %
01.10.2021 05:28 9,1 C 8,9 C 7,8 C 88 % 1019,3 hPa 0,0 l/m 0 min 0 min 0 W/m 6,4 km/h (2 Bft) 100,00 %
01.10.2021 05:30 9,2 C 8,9 C 7,8 C 88 % 1019,4 hPa 0,0 l/m 0 min 0 min 0 W/m 6,4 km/h (2 Bft) 100,00 %
01.10.2021 05:32 9,2 C 8,9 C 7,8 C 88 % 1019,3 hPa 0,0 l/m 0 min 0 min 0 W/m 6,4 km/h (2 Bft) 97,87 %
01.10.2021 05:34 9,2 C 8,9 C 7,8 C 88 % 1019,3 hPa 0,0 l/m 0 min 0 min 0 W/m 12,9 km/h (3 Bft) 97,83 %
01.10.2021 05:36 9,3 C 8,9 C 7,8 C 88 % 1019,3 hPa 0,0 l/m 0 min 0 min 0 W/m 6,4 km/h (2 Bft) 95,74 %
01.10.2021 05:38 9,3 C 8,9 C 7,8 C 88 % 1019,3 hPa 0,0 l/m 0 min 0 min 0 W/m 6,4 km/h (2 Bft) 97,87 %
01.10.2021 05:40 9,3 C 8,9 C 7,8 C 88 % 1019,2 hPa 0,0 l/m 0 min 0 min 0 W/m 6,4 km/h (2 Bft) 97,87 %
01.10.2021 05:42 9,3 C 8,9 C 7,8 C 88 % 1019,2 hPa 0,0 l/m 0 min 0 min 0 W/m 12,9 km/h (3 Bft) 95,74 %
01.10.2021 05:44 9,4 C 8,9 C 7,8 C 88 % 1019,2 hPa 0,0 l/m 0 min 0 min 0 W/m 12,9 km/h (3 Bft) 97,87 %
01.10.2021 05:46 9,4 C 9,4 C 7,8 C 87 % 1019,2 hPa 0,0 l/m 0 min 0 min 0 W/m 9,7 km/h (2 Bft) 97,83 %
01.10.2021 05:48 9,5 C 9,4 C 7,8 C 87 % 1019,2 hPa 0,0 l/m 0 min 0 min 0 W/m 12,9 km/h (3 Bft) 97,87 %
01.10.2021 05:50 9,5 C 9,4 C 7,8 C 87 % 1019,2 hPa 0,0 l/m 0 min 0 min 0 W/m 6,4 km/h (2 Bft) 97,87 %
01.10.2021 05:52 9,5 C 9,4 C 8,4 C 87 % 1019,1 hPa 0,0 l/m 0 min 0 min 0 W/m 16,1 km/h (3 Bft) 95,74 %
01.10.2021 05:54 9,6 C 9,4 C 8,4 C 87 % 1019,1 hPa 0,0 l/m 0 min 0 min 0 W/m 12,9 km/h (3 Bft) 97,87 %
01.10.2021 05:56 9,6 C 9,4 C 8,4 C 87 % 1019,1 hPa 0,0 l/m 0 min 0 min 0 W/m 16,1 km/h (3 Bft) 97,87 %
01.10.2021 05:58 9,6 C 9,4 C 8,4 C 87 % 1019,1 hPa 0,0 l/m 0 min 0 min 0 W/m 19,3 km/h (3 Bft) 97,83 %
01.10.2021 06:00 9,7 C 9,4 C 8,4 C 87 % 1019,1 hPa 0,0 l/m 0 min 0 min 0 W/m 12,9 km/h (3 Bft) 97,87 %
01.10.2021 06:02 9,8 C 9,4 C 8,4 C 87 % 1019,1 hPa 0,0 l/m 0 min 0 min 0 W/m 12,9 km/h (3 Bft) 97,87 %
01.10.2021 06:04 9,8 C 9,4 C 8,4 C 86 % 1019,1 hPa 0,0 l/m 0 min 0 min 0 W/m 9,7 km/h (2 Bft) 100,00 %
01.10.2021 06:08 9,9 C 9,4 C 8,4 C 86 % 1019,0 hPa 0,0 l/m 0 min 0 min 0 W/m 16,1 km/h (3 Bft) 98,92 %
01.10.2021 06:10 9,9 C 9,4 C 8,4 C 86 % 1019,0 hPa 0,0 l/m 0 min 0 min 0 W/m 12,9 km/h (3 Bft) 100,00 %
01.10.2021 06:12 9,9 C 9,4 C 8,4 C 86 % 1019,0 hPa 0,0 l/m 0 min 0 min 0 W/m 16,1 km/h (3 Bft) 100,00 %
01.10.2021 06:14 10,0 C 9,4 C 8,4 C 85 % 1019,0 hPa 0,0 l/m 0 min 0 min 0 W/m 19,3 km/h (3 Bft) 100,00 %
01.10.2021 06:16 10,0 C 9,4 C 8,4 C 85 % 1019,0 hPa 0,0 l/m 0 min 0 min 0 W/m 12,9 km/h (3 Bft) 100,00 %
01.10.2021 06:18 10,0 C 9,4 C 8,4 C 85 % 1018,9 hPa 0,0 l/m 0 min 0 min 0 W/m 12,9 km/h (3 Bft) 97,87 %
01.10.2021 06:20 10,0 C 9,4 C 8,4 C 85 % 1018,9 hPa 0,0 l/m 0 min 0 min 0 W/m 12,9 km/h (3 Bft) 100,00 %
01.10.2021 06:22 10,0 C 9,4 C 8,4 C 85 % 1018,9 hPa 0,0 l/m 0 min 0 min 0 W/m 16,1 km/h (3 Bft) 100,00 %
01.10.2021 06:24 10,0 C 9,4 C 8,4 C 85 % 1018,9 hPa 0,0 l/m 0 min 0 min 0 W/m 12,9 km/h (3 Bft) 100,00 %
01.10.2021 06:26 10,1 C 9,4 C 8,4 C 85 % 1018,9 hPa 0,0 l/m 0 min 0 min 0 W/m 12,9 km/h (3 Bft) 100,00 %
01.10.2021 06:28 10,1 C 9,4 C 8,4 C 84 % 1018,8 hPa 0,0 l/m 0 min 0 min 0 W/m 12,9 km/h (3 Bft) 100,00 %
01.10.2021 06:30 10,1 C 9,4 C 8,4 C 84 % 1018,8 hPa 0,0 l/m 0 min 0 min 0 W/m 12,9 km/h (3 Bft) 100,00 %
01.10.2021 06:32 10,1 C 9,4 C 8,4 C 84 % 1018,9 hPa 0,0 l/m 0 min 0 min 0 W/m 19,3 km/h (3 Bft) 100,00 %
01.10.2021 06:34 10,1 C 9,4 C 8,4 C 84 % 1018,8 hPa 0,0 l/m 0 min 0 min 0 W/m 9,7 km/h (2 Bft) 97,83 %
01.10.2021 06:36 10,1 C 9,4 C 8,4 C 84 % 1018,8 hPa 0,0 l/m 0 min 0 min 0 W/m 12,9 km/h (3 Bft) 97,87 %
01.10.2021 06:38 10,1 C 9,4 C 8,4 C 84 % 1018,8 hPa 0,0 l/m 0 min 0 min 0 W/m 16,1 km/h (3 Bft) 100,00 %
01.10.2021 06:40 10,1 C 9,4 C 8,4 C 84 % 1018,8 hPa 0,0 l/m 0 min 0 min 0 W/m 12,9 km/h (3 Bft) 100,00 %
01.10.2021 06:42 10,1 C 9,4 C 8,4 C 84 % 1018,7 hPa 0,0 l/m 0 min 0 min 0 W/m 16,1 km/h (3 Bft) 100,00 %
01.10.2021 06:44 10,1 C 9,4 C 8,4 C 84 % 1018,7 hPa 0,0 l/m 0 min 0 min 0 W/m 12,9 km/h (3 Bft) 97,83 %
01.10.2021 06:46 10,1 C 9,4 C 8,4 C 84 % 1018,7 hPa 0,0 l/m 0 min 0 min 0 W/m 16,1 km/h (3 Bft) 97,87 %
01.10.2021 06:48 10,1 C 9,4 C 8,4 C 84 % 1018,7 hPa 0,0 l/m 0 min 0 min 0 W/m 12,9 km/h (3 Bft) 97,87 %
01.10.2021 06:50 10,1 C 9,4 C 8,4 C 84 % 1018,7 hPa 0,0 l/m 0 min 0 min 0 W/m 16,1 km/h (3 Bft) 95,74 %
01.10.2021 06:52 10,1 C 9,4 C 8,4 C 84 % 1018,6 hPa 0,0 l/m 0 min 0 min 0 W/m 6,4 km/h (2 Bft) 97,87 %
01.10.2021 06:54 10,1 C 9,4 C 8,4 C 84 % 1018,6 hPa 0,0 l/m 0 min 0 min 0 W/m 16,1 km/h (3 Bft) 97,87 %
01.10.2021 06:56 10,1 C 9,4 C 8,4 C 84 % 1018,6 hPa 0,0 l/m 0 min 0 min 0 W/m 12,9 km/h (3 Bft) 97,83 %
01.10.2021 06:58 10,1 C 9,4 C 8,4 C 84 % 1018,6 hPa 0,0 l/m 0 min 0 min 0 W/m 16,1 km/h (3 Bft) 97,87 %
01.10.2021 07:00 10,1 C 9,4 C 8,4 C 84 % 1018,5 hPa 0,0 l/m 0 min 0 min 0 W/m 16,1 km/h (3 Bft) 97,87 %
01.10.2021 07:02 10,1 C 9,4 C 8,4 C 84 % 1018,6 hPa 0,0 l/m 0 min 0 min 0 W/m 16,1 km/h (3 Bft) 97,87 %
01.10.2021 07:04 10,1 C 9,4 C 8,4 C 84 % 1018,5 hPa 0,0 l/m 0 min 0 min 0 W/m 12,9 km/h (3 Bft) 97,87 %
01.10.2021 07:06 10,0 C 9,4 C 8,4 C 84 % 1018,5 hPa 0,0 l/m 0 min 0 min 0 W/m 16,1 km/h (3 Bft) 97,87 %
01.10.2021 07:08 10,0 C 9,4 C 8,4 C 84 % 1018,5 hPa 0,0 l/m 0 min 0 min 0 W/m 12,9 km/h (3 Bft) 97,83 %
01.10.2021 07:10 10,0 C 9,4 C 8,4 C 84 % 1018,5 hPa 0,0 l/m 0 min 0 min 0 W/m 16,1 km/h (3 Bft) 95,74 %
01.10.2021 07:12 10,0 C 9,4 C 8,4 C 84 % 1018,5 hPa 0,0 l/m 0 min 0 min 0 W/m 12,9 km/h (3 Bft) 97,87 %
01.10.2021 07:14 10,0 C 9,4 C 7,8 C 84 % 1018,5 hPa 0,0 l/m 0 min 0 min 0 W/m 9,7 km/h (2 Bft) 97,87 %
01.10.2021 07:16 10,0 C 9,4 C 7,8 C 84 % 1018,5 hPa 0,0 l/m 0 min 0 min 0 W/m 12,9 km/h (3 Bft) 97,87 %
01.10.2021 07:18 9,9 C 9,4 C 7,8 C 84 % 1018,5 hPa 0,0 l/m 0 min 0 min 0 W/m 16,1 km/h (3 Bft) 97,87 %
01.10.2021 07:20 9,9 C 9,4 C 7,8 C 84 % 1018,5 hPa 0,0 l/m 0 min 0 min 0 W/m 16,1 km/h (3 Bft) 97,83 %
01.10.2021 07:22 9,9 C 9,4 C 7,8 C 84 % 1018,5 hPa 0,0 l/m 0 min 0 min 0 W/m 16,1 km/h (3 Bft) 93,62 %
01.10.2021 07:24 9,9 C 9,4 C 7,8 C 84 % 1018,5 hPa 0,0 l/m 0 min 0 min 0 W/m 16,1 km/h (3 Bft) 95,74 %
01.10.2021 07:26 9,9 C 9,4 C 7,8 C 84 % 1018,5 hPa 0,0 l/m 0 min 0 min 0 W/m 12,9 km/h (3 Bft) 95,74 %
01.10.2021 07:28 9,9 C 8,9 C 7,8 C 84 % 1018,6 hPa 0,0 l/m 0 min 0 min 0 W/m 12,9 km/h (3 Bft) 91,49 %
01.10.2021 07:30 9,8 C 8,9 C 7,8 C 84 % 1018,5 hPa 0,0 l/m 0 min 0 min 0 W/m 16,1 km/h (3 Bft) 91,30 %
01.10.2021 07:32 9,8 C 8,9 C 7,8 C 84 % 1018,5 hPa 0,0 l/m 0 min 0 min 0 W/m 12,9 km/h (3 Bft) 93,62 %
01.10.2021 07:34 9,8 C 8,9 C 7,8 C 84 % 1018,4 hPa 0,0 l/m 0 min 0 min 0 W/m 16,1 km/h (3 Bft) 95,74 %
01.10.2021 07:36 9,8 C 8,9 C 7,8 C 84 % 1018,4 hPa 0,0 l/m 0 min 0 min 0 W/m 19,3 km/h (3 Bft) 97,87 %
01.10.2021 07:38 9,8 C 8,9 C 7,8 C 84 % 1018,5 hPa 0,0 l/m 0 min 0 min 5 W/m 19,3 km/h (3 Bft) 93,62 %
01.10.2021 07:40 9,8 C 8,9 C 7,8 C 84 % 1018,4 hPa 0,0 l/m 0 min 0 min 5 W/m 19,3 km/h (3 Bft) 95,74 %
01.10.2021 07:42 9,8 C 8,9 C 7,8 C 84 % 1018,4 hPa 0,0 l/m 0 min 0 min 7 W/m 12,9 km/h (3 Bft) 95,65 %
01.10.2021 07:44 9,7 C 8,9 C 7,8 C 84 % 1018,5 hPa 0,0 l/m 0 min 0 min 7 W/m 16,1 km/h (3 Bft) 95,74 %
01.10.2021 07:46 9,7 C 8,9 C 7,8 C 84 % 1018,4 hPa 0,0 l/m 0 min 0 min 10 W/m 19,3 km/h (3 Bft) 93,62 %
01.10.2021 07:48 9,7 C 8,9 C 7,8 C 84 % 1018,4 hPa 0,0 l/m 0 min 0 min 11 W/m 16,1 km/h (3 Bft) 93,62 %
01.10.2021 07:50 9,6 C 8,9 C 7,8 C 84 % 1018,4 hPa 0,0 l/m 0 min 0 min 12 W/m 12,9 km/h (3 Bft) 95,74 %
01.10.2021 07:52 9,6 C 8,9 C 7,8 C 84 % 1018,4 hPa 0,0 l/m 0 min 0 min 15 W/m 12,9 km/h (3 Bft) 95,74 %
01.10.2021 07:54 9,6 C 8,9 C 7,8 C 84 % 1018,4 hPa 0,0 l/m 0 min 0 min 17 W/m 22,5 km/h (4 Bft) 91,30 %
01.10.2021 07:56 9,6 C 8,9 C 7,8 C 84 % 1018,4 hPa 0,0 l/m 0 min 0 min 19 W/m 16,1 km/h (3 Bft) 93,62 %
01.10.2021 07:58 9,6 C 8,9 C 7,8 C 85 % 1018,4 hPa 0,0 l/m 0 min 0 min 22 W/m 12,9 km/h (3 Bft) 97,87 %
01.10.2021 08:00 9,6 C 8,9 C 7,8 C 85 % 1018,4 hPa 0,0 l/m 0 min 0 min 25 W/m 16,1 km/h (3 Bft) 97,87 %
01.10.2021 08:02 9,6 C 8,9 C 7,8 C 85 % 1018,4 hPa 0,0 l/m 0 min 0 min 26 W/m 16,1 km/h (3 Bft) 91,49 %
01.10.2021 08:04 9,6 C 8,9 C 7,8 C 85 % 1018,3 hPa 0,0 l/m 0 min 0 min 28 W/m 12,9 km/h (3 Bft) 97,87 %
01.10.2021 08:06 9,6 C 8,9 C 7,8 C 85 % 1018,3 hPa 0,0 l/m 0 min 0 min 28 W/m 12,9 km/h (3 Bft) 95,65 %
01.10.2021 08:08 9,6 C 8,9 C 7,8 C 85 % 1018,4 hPa 0,0 l/m 0 min 0 min 30 W/m 12,9 km/h (3 Bft) 97,87 %
01.10.2021 08:10 9,6 C 8,9 C 7,8 C 85 % 1018,3 hPa 0,0 l/m 0 min 0 min 32 W/m 12,9 km/h (3 Bft) 97,87 %
01.10.2021 08:12 9,6 C 9,4 C 7,8 C 85 % 1018,4 hPa 0,0 l/m 0 min 0 min 32 W/m 16,1 km/h (3 Bft) 95,74 %
01.10.2021 08:14 9,6 C 9,4 C 7,8 C 85 % 1018,3 hPa 0,0 l/m 0 min 0 min 34 W/m 12,9 km/h (3 Bft) 97,87 %
01.10.2021 08:16 9,6 C 9,4 C 7,8 C 85 % 1018,4 hPa 0,0 l/m 0 min 0 min 37 W/m 16,1 km/h (3 Bft) 100,00 %
01.10.2021 08:18 9,7 C 9,4 C 7,8 C 85 % 1018,3 hPa 0,0 l/m 0 min 0 min 39 W/m 16,1 km/h (3 Bft) 100,00 %
01.10.2021 08:20 9,7 C 9,4 C 7,8 C 85 % 1018,3 hPa 0,0 l/m 0 min 0 min 41 W/m 12,9 km/h (3 Bft) 100,00 %
01.10.2021 08:22 9,7 C 9,4 C 7,8 C 85 % 1018,3 hPa 0,0 l/m 0 min 0 min 44 W/m 19,3 km/h (3 Bft) 97,87 %
01.10.2021 08:24 9,8 C 9,4 C 8,4 C 85 % 1018,3 hPa 0,0 l/m 0 min 0 min 46 W/m 16,1 km/h (3 Bft) 100,00 %
01.10.2021 08:26 9,8 C 9,4 C 8,4 C 85 % 1018,3 hPa 0,0 l/m 0 min 0 min 47 W/m 16,1 km/h (3 Bft) 97,87 %
01.10.2021 08:28 9,8 C 9,4 C 8,4 C 85 % 1018,2 hPa 0,0 l/m 0 min 0 min 51 W/m 19,3 km/h (3 Bft) 100,00 %
01.10.2021 08:30 9,9 C 9,4 C 8,4 C 84 % 1018,2 hPa 0,0 l/m 0 min 0 min 56 W/m 16,1 km/h (3 Bft) 97,87 %
01.10.2021 08:32 9,9 C 9,4 C 8,4 C 84 % 1018,2 hPa 0,0 l/m 0 min 0 min 62 W/m 16,1 km/h (3 Bft) 97,87 %
01.10.2021 08:34 10,0 C 10,0 C 8,4 C 84 % 1018,2 hPa 0,0 l/m 2 min 0 min 71 W/m 19,3 km/h (3 Bft) 100,00 %
01.10.2021 08:36 10,0 C 10,0 C 8,4 C 84 % 1018,2 hPa 0,0 l/m 2 min 0 min 80 W/m 19,3 km/h (3 Bft) 100,00 %
01.10.2021 08:38 10,1 C 10,0 C 8,4 C 84 % 1018,2 hPa 0,0 l/m 2 min 0 min 92 W/m 16,1 km/h (3 Bft) 100,00 %
01.10.2021 08:40 10,1 C 10,0 C 8,4 C 84 % 1018,2 hPa 0,0 l/m 2 min 0 min 102 W/m 16,1 km/h (3 Bft) 100,00 %
01.10.2021 08:42 10,2 C 10,0 C 8,9 C 84 % 1018,3 hPa 0,0 l/m 2 min 0 min 107 W/m 16,1 km/h (3 Bft) 100,00 %
01.10.2021 08:44 10,3 C 10,6 C 8,9 C 84 % 1018,2 hPa 0,0 l/m 2 min 0 min 104 W/m 12,9 km/h (3 Bft) 100,00 %
01.10.2021 08:45 10,4 C 10,6 C 8,9 C 83 % 1018,2 hPa 0,0 l/m 1 min 0 min 100 W/m 19,3 km/h (3 Bft) 100,00 %
01.10.2021 08:48 10,5 C 10,6 C 8,9 C 83 % 1018,2 hPa 0,0 l/m 3 min 0 min 96 W/m 22,5 km/h (4 Bft) 100,00 %
01.10.2021 08:50 10,5 C 10,6 C 8,9 C 83 % 1018,3 hPa 0,0 l/m 2 min 0 min 92 W/m 19,3 km/h (3 Bft) 100,00 %
01.10.2021 08:52 10,6 C 10,6 C 8,9 C 82 % 1018,2 hPa 0,0 l/m 0 min 0 min 91 W/m 29,0 km/h (5 Bft) 100,00 %
01.10.2021 08:54 10,6 C 10,6 C 8,9 C 82 % 1018,2 hPa 0,0 l/m 0 min 0 min 93 W/m 19,3 km/h (3 Bft) 100,00 %
01.10.2021 08:56 10,7 C 10,6 C 8,9 C 82 % 1018,3 hPa 0,0 l/m 0 min 0 min 96 W/m 16,1 km/h (3 Bft) 100,00 %
01.10.2021 08:58 10,8 C 10,6 C 8,9 C 82 % 1018,3 hPa 0,0 l/m 0 min 0 min 97 W/m 16,1 km/h (3 Bft) 100,00 %
01.10.2021 09:00 10,8 C 10,6 C 8,9 C 82 % 1018,2 hPa 0,0 l/m 0 min 0 min 96 W/m 19,3 km/h (3 Bft) 100,00 %
01.10.2021 09:02 10,9 C 10,6 C 8,9 C 81 % 1018,3 hPa 0,0 l/m 0 min 0 min 94 W/m 16,1 km/h (3 Bft) 100,00 %
01.10.2021 09:04 10,9 C 10,6 C 9,5 C 81 % 1018,3 hPa 0,0 l/m 0 min 0 min 97 W/m 19,3 km/h (3 Bft) 97,87 %
01.10.2021 09:06 11,0 C 11,1 C 9,5 C 81 % 1018,3 hPa 0,0 l/m 0 min 0 min 102 W/m 16,1 km/h (3 Bft) 100,00 %
01.10.2021 09:08 11,0 C 11,1 C 9,5 C 81 % 1018,2 hPa 0,0 l/m 0 min 0 min 105 W/m 16,1 km/h (3 Bft) 100,00 %
01.10.2021 09:10 11,1 C 11,1 C 9,5 C 81 % 1018,3 hPa 0,0 l/m 0 min 0 min 108 W/m 19,3 km/h (3 Bft) 97,87 %
01.10.2021 09:12 11,1 C 11,1 C 9,5 C 81 % 1018,3 hPa 0,0 l/m 0 min 0 min 112 W/m 19,3 km/h (3 Bft) 100,00 %
01.10.2021 09:14 11,2 C 11,1 C 9,5 C 81 % 1018,3 hPa 0,0 l/m 0 min 0 min 114 W/m 16,1 km/h (3 Bft) 100,00 %
01.10.2021 09:16 11,3 C 11,1 C 9,5 C 81 % 1018,2 hPa 0,0 l/m 0 min 0 min 114 W/m 16,1 km/h (3 Bft) 100,00 %
01.10.2021 09:18 11,3 C 11,1 C 9,5 C 80 % 1018,2 hPa 0,0 l/m 0 min 0 min 113 W/m 25,7 km/h (4 Bft) 100,00 %
01.10.2021 09:20 11,4 C 11,1 C 9,5 C 80 % 1018,2 hPa 0,0 l/m 0 min 0 min 117 W/m 19,3 km/h (3 Bft) 97,87 %
01.10.2021 09:22 11,4 C 11,7 C 9,5 C 80 % 1018,3 hPa 0,0 l/m 0 min 0 min 126 W/m 16,1 km/h (3 Bft) 97,87 %
01.10.2021 09:24 11,5 C 11,7 C 9,5 C 80 % 1018,3 hPa 0,0 l/m 2 min 0 min 135 W/m 19,3 km/h (3 Bft) 97,87 %
01.10.2021 09:26 11,6 C 11,7 C 10,0 C 80 % 1018,3 hPa 0,0 l/m 2 min 0 min 142 W/m 19,3 km/h (3 Bft) 97,87 %
01.10.2021 09:28 11,6 C 11,7 C 10,0 C 80 % 1018,3 hPa 0,0 l/m 2 min 0 min 163 W/m 19,3 km/h (3 Bft) 97,83 %
01.10.2021 09:30 11,7 C 11,7 C 10,0 C 80 % 1018,3 hPa 0,0 l/m 2 min 0 min 188 W/m 22,5 km/h (4 Bft) 95,74 %
01.10.2021 09:32 11,8 C 12,2 C 10,0 C 79 % 1018,3 hPa 0,0 l/m 2 min 0 min 205 W/m 19,3 km/h (3 Bft) 95,74 %
01.10.2021 09:34 11,9 C 12,2 C 10,0 C 79 % 1018,3 hPa 0,0 l/m 2 min 0 min 276 W/m 19,3 km/h (3 Bft) 95,74 %
01.10.2021 09:36 12,0 C 12,2 C 10,0 C 79 % 1018,3 hPa 0,0 l/m 2 min 0 min 189 W/m 19,3 km/h (3 Bft) 93,75 %
01.10.2021 09:38 12,0 C 12,2 C 10,6 C 79 % 1018,3 hPa 0,0 l/m 2 min 0 min 166 W/m 16,1 km/h (3 Bft) 93,62 %
01.10.2021 09:40 12,1 C 12,2 C 10,6 C 79 % 1018,3 hPa 0,0 l/m 2 min 0 min 166 W/m 12,9 km/h (3 Bft) 97,83 %
01.10.2021 09:42 12,1 C 12,2 C 10,6 C 79 % 1018,2 hPa 0,0 l/m 2 min 0 min 165 W/m 12,9 km/h (3 Bft) 93,02 %
01.10.2021 09:44 12,2 C 12,2 C 10,6 C 79 % 1018,2 hPa 0,0 l/m 2 min 0 min 165 W/m 12,9 km/h (3 Bft) 95,74 %
01.10.2021 09:46 12,3 C 12,2 C 10,6 C 79 % 1018,2 hPa 0,0 l/m 2 min 0 min 162 W/m 19,3 km/h (3 Bft) 95,74 %
01.10.2021 09:48 12,3 C 12,2 C 10,6 C 78 % 1018,2 hPa 0,0 l/m 2 min 0 min 163 W/m 19,3 km/h (3 Bft) 95,74 %
01.10.2021 09:50 12,4 C 12,2 C 10,6 C 78 % 1018,2 hPa 0,0 l/m 0 min 0 min 160 W/m 12,9 km/h (3 Bft) 95,74 %
01.10.2021 09:52 12,4 C 12,2 C 10,6 C 77 % 1018,2 hPa 0,0 l/m 0 min 0 min 145 W/m 16,1 km/h (3 Bft) 95,65 %
01.10.2021 09:54 12,4 C 12,2 C 10,6 C 77 % 1018,2 hPa 0,0 l/m 2 min 0 min 171 W/m 22,5 km/h (4 Bft) 95,74 %
01.10.2021 09:56 12,5 C 12,2 C 10,6 C 77 % 1018,2 hPa 0,0 l/m 0 min 0 min 145 W/m 16,1 km/h (3 Bft) 95,74 %
01.10.2021 09:58 12,5 C 12,8 C 10,6 C 77 % 1018,2 hPa 0,0 l/m 0 min 0 min 133 W/m 19,3 km/h (3 Bft) 98,00 %
01.10.2021 10:00 12,6 C 12,8 C 10,6 C 77 % 1018,1 hPa 0,0 l/m 0 min 0 min 120 W/m 19,3 km/h (3 Bft) 100,00 %
01.10.2021 10:02 12,7 C 12,8 C 10,6 C 77 % 1018,1 hPa 0,0 l/m 0 min 0 min 115 W/m 25,7 km/h (4 Bft) 97,96 %
01.10.2021 10:04 12,8 C 12,8 C 10,6 C 77 % 1018,0 hPa 0,0 l/m 0 min 0 min 131 W/m 16,1 km/h (3 Bft) 97,87 %
01.10.2021 10:06 12,8 C 12,8 C 10,6 C 77 % 1018,0 hPa 0,0 l/m 0 min 0 min 117 W/m 16,1 km/h (3 Bft) 93,62 %
01.10.2021 10:08 12,9 C 12,8 C 10,6 C 77 % 1018,0 hPa 0,0 l/m 0 min 0 min 122 W/m 16,1 km/h (3 Bft) 97,30 %
01.10.2021 10:10 12,9 C 12,8 C 10,6 C 77 % 1018,0 hPa 0,0 l/m 0 min 0 min 128 W/m 16,1 km/h (3 Bft) 97,87 %
01.10.2021 10:12 12,9 C 12,8 C 10,6 C 77 % 1018,0 hPa 0,0 l/m 0 min 0 min 129 W/m 12,9 km/h (3 Bft) 93,62 %
01.10.2021 10:14 13,0 C 12,8 C 10,6 C 77 % 1017,9 hPa 0,0 l/m 0 min 0 min 128 W/m 19,3 km/h (3 Bft) 95,74 %
01.10.2021 10:16 13,0 C 12,8 C 10,6 C 77 % 1018,0 hPa 0,0 l/m 0 min 0 min 129 W/m 19,3 km/h (3 Bft) 95,65 %
01.10.2021 10:18 13,0 C 12,8 C 10,6 C 77 % 1017,9 hPa 0,0 l/m 0 min 0 min 135 W/m 16,1 km/h (3 Bft) 95,74 %
01.10.2021 10:20 13,0 C 12,8 C 11,1 C 77 % 1017,9 hPa 0,0 l/m 0 min 0 min 145 W/m 16,1 km/h (3 Bft) 95,74 %
01.10.2021 10:22 13,0 C 12,8 C 11,1 C 76 % 1017,9 hPa 0,0 l/m 0 min 0 min 157 W/m 19,3 km/h (3 Bft) 95,74 %
01.10.2021 10:24 13,0 C 12,8 C 11,1 C 76 % 1017,9 hPa 0,0 l/m 0 min 0 min 157 W/m 9,7 km/h (2 Bft) 93,62 %
01.10.2021 10:26 13,0 C 12,8 C 11,1 C 77 % 1017,8 hPa 0,0 l/m 0 min 0 min 144 W/m 12,9 km/h (3 Bft) 97,83 %
01.10.2021 10:28 13,1 C 12,8 C 11,1 C 77 % 1017,8 hPa 0,0 l/m 0 min 0 min 129 W/m 16,1 km/h (3 Bft) 95,74 %
01.10.2021 10:30 13,1 C 12,8 C 11,1 C 77 % 1017,8 hPa 0,0 l/m 0 min 0 min 118 W/m 16,1 km/h (3 Bft) 97,87 %
01.10.2021 10:32 13,1 C 12,8 C 11,1 C 77 % 1017,8 hPa 0,0 l/m 0 min 0 min 123 W/m 22,5 km/h (4 Bft) 98,00 %
01.10.2021 10:34 13,1 C 12,8 C 11,1 C 77 % 1017,8 hPa 0,0 l/m 0 min 0 min 152 W/m 12,9 km/h (3 Bft) 97,87 %
01.10.2021 10:36 13,2 C 13,3 C 11,1 C 77 % 1017,7 hPa 0,0 l/m 0 min 0 min 142 W/m 12,9 km/h (3 Bft) 95,74 %
01.10.2021 10:38 13,3 C 13,3 C 11,1 C 77 % 1017,7 hPa 0,0 l/m 0 min 0 min 150 W/m 12,9 km/h (3 Bft) 97,83 %
01.10.2021 10:40 13,4 C 13,3 C 11,1 C 77 % 1017,7 hPa 0,0 l/m 0 min 0 min 151 W/m 16,1 km/h (3 Bft) 98,15 %
01.10.2021 10:42 13,4 C 13,9 C 11,7 C 77 % 1017,7 hPa 0,0 l/m 0 min 0 min 171 W/m 16,1 km/h (3 Bft) 94,74 %
01.10.2021 10:44 13,5 C 14,4 C 11,7 C 77 % 1017,7 hPa 0,0 l/m 0 min 0 min 155 W/m 12,9 km/h (3 Bft) 97,87 %
01.10.2021 10:46 13,6 C 14,4 C 12,3 C 77 % 1017,7 hPa 0,0 l/m 2 min 0 min 287 W/m 16,1 km/h (3 Bft) 95,92 %
01.10.2021 10:48 13,8 C 14,4 C 12,3 C 76 % 1017,6 hPa 0,0 l/m 2 min 0 min 486 W/m 12,9 km/h (3 Bft) 95,74 %
01.10.2021 10:50 13,9 C 14,4 C 12,3 C 76 % 1017,7 hPa 0,0 l/m 0 min 0 min 160 W/m 19,3 km/h (3 Bft) 97,83 %
01.10.2021 10:52 14,0 C 15,0 C 12,3 C 76 % 1017,7 hPa 0,0 l/m 0 min 0 min 117 W/m 12,9 km/h (3 Bft) 97,87 %
01.10.2021 10:54 14,2 C 15,0 C 12,8 C 75 % 1017,6 hPa 0,0 l/m 0 min 0 min 105 W/m 16,1 km/h (3 Bft) 97,87 %
01.10.2021 10:56 14,2 C 15,0 C 12,8 C 75 % 1017,7 hPa 0,0 l/m 0 min 0 min 108 W/m 19,3 km/h (3 Bft) 97,87 %
01.10.2021 10:58 14,3 C 15,0 C 13,4 C 75 % 1017,6 hPa 0,0 l/m 0 min 0 min 118 W/m 12,9 km/h (3 Bft) 100,00 %
01.10.2021 11:00 14,4 C 15,0 C 13,4 C 74 % 1017,7 hPa 0,0 l/m 0 min 0 min 122 W/m 16,1 km/h (3 Bft) 100,00 %
01.10.2021 11:02 14,5 C 15,0 C 13,4 C 74 % 1017,6 hPa 0,0 l/m 0 min 0 min 118 W/m 22,5 km/h (4 Bft) 100,00 %
01.10.2021 11:04 14,6 C 15,6 C 13,9 C 74 % 1017,6 hPa 0,0 l/m 0 min 0 min 112 W/m 16,1 km/h (3 Bft) 95,74 %
01.10.2021 11:06 14,7 C 15,6 C 14,5 C 74 % 1017,6 hPa 0,0 l/m 0 min 0 min 118 W/m 19,3 km/h (3 Bft) 100,00 %
01.10.2021 11:08 14,8 C 16,1 C 15,0 C 74 % 1017,6 hPa 0,0 l/m 0 min 0 min 222 W/m 19,3 km/h (3 Bft) 100,00 %
01.10.2021 11:10 14,9 C 16,7 C 15,0 C 73 % 1017,6 hPa 0,0 l/m 2 min 0 min 255 W/m 16,1 km/h (3 Bft) 100,00 %
01.10.2021 11:12 15,0 C 17,2 C 15,0 C 73 % 1017,6 hPa 0,0 l/m 2 min 0 min 249 W/m 22,5 km/h (4 Bft) 100,00 %
01.10.2021 11:14 15,1 C 18,3 C 15,6 C 72 % 1017,7 hPa 0,0 l/m 2 min 0 min 267 W/m 12,9 km/h (3 Bft) 100,00 %
01.10.2021 11:16 15,3 C 18,3 C 16,1 C 72 % 1017,6 hPa 0,0 l/m 2 min 0 min 341 W/m 16,1 km/h (3 Bft) 100,00 %
01.10.2021 11:18 15,4 C 18,9 C 16,7 C 71 % 1017,6 hPa 0,0 l/m 2 min 0 min 508 W/m 16,1 km/h (3 Bft) 97,87 %
01.10.2021 11:20 15,5 C 19,4 C 17,3 C 72 % 1017,6 hPa 0,0 l/m 2 min 0 min 522 W/m 19,3 km/h (3 Bft) 100,00 %
01.10.2021 11:22 15,6 C 19,4 C 17,8 C 71 % 1017,6 hPa 0,0 l/m 2 min 0 min 532 W/m 19,3 km/h (3 Bft) 100,00 %
01.10.2021 11:24 15,8 C 19,4 C 18,4 C 70 % 1017,6 hPa 0,0 l/m 2 min 0 min 537 W/m 16,1 km/h (3 Bft) 100,00 %
01.10.2021 11:26 15,9 C 18,9 C 18,9 C 70 % 1017,5 hPa 0,0 l/m 2 min 0 min 544 W/m 22,5 km/h (4 Bft) 100,00 %
01.10.2021 11:28 16,0 C 19,4 C 19,5 C 69 % 1017,5 hPa 0,0 l/m 2 min 0 min 548 W/m 19,3 km/h (3 Bft) 100,00 %
01.10.2021 11:30 16,0 C 18,9 C 20,0 C 68 % 1017,6 hPa 0,0 l/m 2 min 0 min 553 W/m 22,5 km/h (4 Bft) 97,87 %
01.10.2021 11:32 16,1 C 19,4 C 20,0 C 68 % 1017,5 hPa 0,0 l/m 2 min 0 min 560 W/m 12,9 km/h (3 Bft) 95,74 %
01.10.2021 11:34 16,3 C 20,0 C 20,6 C 68 % 1017,5 hPa 0,0 l/m 2 min 0 min 565 W/m 19,3 km/h (3 Bft) 97,87 %
01.10.2021 11:36 16,3 C 20,6 C 21,1 C 68 % 1017,4 hPa 0,0 l/m 2 min 0 min 569 W/m 19,3 km/h (3 Bft) 98,08 %
01.10.2021 11:38 16,4 C 21,1 C 21,1 C 68 % 1017,4 hPa 0,0 l/m 2 min 0 min 570 W/m 19,3 km/h (3 Bft) 96,00 %
01.10.2021 11:40 16,5 C 21,7 C 21,1 C 67 % 1017,3 hPa 0,0 l/m 2 min 0 min 544 W/m 22,5 km/h (4 Bft) 97,87 %
01.10.2021 11:42 16,6 C 21,7 C 21,1 C 67 % 1017,3 hPa 0,0 l/m 2 min 0 min 567 W/m 22,5 km/h (4 Bft) 97,37 %
01.10.2021 11:44 16,6 C 22,2 C 21,1 C 67 % 1017,3 hPa 0,0 l/m 2 min 0 min 584 W/m 22,5 km/h (4 Bft) 97,87 %
01.10.2021 11:46 16,7 C 21,7 C 21,1 C 65 % 1017,3 hPa 0,0 l/m 2 min 0 min 581 W/m 19,3 km/h (3 Bft) 97,87 %
01.10.2021 11:48 16,7 C 21,7 C 20,6 C 65 % 1017,2 hPa 0,0 l/m 2 min 0 min 516 W/m 19,3 km/h (3 Bft) 97,83 %
01.10.2021 11:50 16,8 C 21,1 C 20,0 C 66 % 1017,2 hPa 0,0 l/m 2 min 0 min 405 W/m 25,7 km/h (4 Bft) 97,87 %
01.10.2021 11:52 16,7 C 20,0 C 18,9 C 65 % 1017,2 hPa 0,0 l/m 0 min 0 min 248 W/m 25,7 km/h (4 Bft) 96,43 %
01.10.2021 11:54 16,6 C 20,0 C 18,9 C 65 % 1017,2 hPa 0,0 l/m 0 min 0 min 236 W/m 16,1 km/h (3 Bft) 97,87 %
01.10.2021 11:56 16,6 C 20,6 C 19,5 C 66 % 1017,2 hPa 0,0 l/m 2 min 0 min 610 W/m 22,5 km/h (4 Bft) 97,87 %
01.10.2021 11:58 16,8 C 21,1 C 19,5 C 66 % 1017,1 hPa 0,0 l/m 2 min 0 min 604 W/m 19,3 km/h (3 Bft) 97,83 %
01.10.2021 12:00 16,8 C 21,1 C 18,9 C 66 % 1017,1 hPa 0,0 l/m 2 min 0 min 494 W/m 19,3 km/h (3 Bft) 97,87 %
01.10.2021 12:02 16,9 C 20,6 C 18,4 C 65 % 1017,1 hPa 0,0 l/m 2 min 0 min 449 W/m 22,5 km/h (4 Bft) 100,00 %
01.10.2021 12:04 16,9 C 20,6 C 17,8 C 65 % 1017,1 hPa 0,0 l/m 2 min 0 min 595 W/m 25,7 km/h (4 Bft) 100,00 %
01.10.2021 12:08 17,0 C 20,6 C 18,4 C 65 % 1017,1 hPa 0,0 l/m 4 min 0 min 400 W/m 16,1 km/h (3 Bft) 98,96 %
01.10.2021 12:10 17,1 C 20,6 C 18,4 C 65 % 1017,0 hPa 0,0 l/m 0 min 0 min 254 W/m 25,7 km/h (4 Bft) 100,00 %
01.10.2021 12:12 17,2 C 19,4 C 17,3 C 64 % 1017,0 hPa 0,0 l/m 0 min 0 min 262 W/m 22,5 km/h (4 Bft) 100,00 %
01.10.2021 12:14 17,3 C 18,9 C 16,7 C 65 % 1017,0 hPa 0,0 l/m 0 min 0 min 192 W/m 22,5 km/h (4 Bft) 100,00 %
01.10.2021 12:16 17,3 C 18,3 C 16,7 C 65 % 1017,0 hPa 0,0 l/m 0 min 0 min 171 W/m 12,9 km/h (3 Bft) 100,00 %
01.10.2021 12:18 17,4 C 17,8 C 16,1 C 64 % 1017,0 hPa 0,0 l/m 0 min 0 min 137 W/m 16,1 km/h (3 Bft) 100,00 %
01.10.2021 12:20 17,4 C 17,8 C 15,6 C 64 % 1017,0 hPa 0,0 l/m 0 min 0 min 169 W/m 19,3 km/h (3 Bft) 100,00 %
01.10.2021 12:22 17,5 C 17,8 C 15,6 C 64 % 1016,9 hPa 0,0 l/m 0 min 0 min 149 W/m 22,5 km/h (4 Bft) 100,00 %
01.10.2021 12:24 17,5 C 17,8 C 15,6 C 64 % 1017,0 hPa 0,0 l/m 0 min 0 min 153 W/m 16,1 km/h (3 Bft) 100,00 %
01.10.2021 12:26 17,5 C 17,8 C 15,6 C 64 % 1016,9 hPa 0,0 l/m 0 min 0 min 145 W/m 29,0 km/h (5 Bft) 100,00 %
01.10.2021 12:28 17,5 C 17,8 C 15,6 C 64 % 1016,9 hPa 0,0 l/m 0 min 0 min 143 W/m 16,1 km/h (3 Bft) 100,00 %
01.10.2021 12:30 17,6 C 17,8 C 15,6 C 65 % 1016,8 hPa 0,0 l/m 0 min 0 min 147 W/m 25,7 km/h (4 Bft) 100,00 %
01.10.2021 12:32 17,6 C 17,8 C 15,6 C 64 % 1016,8 hPa 0,0 l/m 0 min 0 min 177 W/m 12,9 km/h (3 Bft) 100,00 %
01.10.2021 12:34 17,7 C 17,8 C 15,6 C 64 % 1016,9 hPa 0,0 l/m 0 min 0 min 220 W/m 19,3 km/h (3 Bft) 96,00 %
01.10.2021 12:36 17,8 C 17,8 C 15,6 C 64 % 1016,7 hPa 0,0 l/m 0 min 0 min 175 W/m 19,3 km/h (3 Bft) 100,00 %
01.10.2021 12:38 17,8 C 17,8 C 15,6 C 64 % 1016,8 hPa 0,0 l/m 0 min 0 min 163 W/m 22,5 km/h (4 Bft) 100,00 %
01.10.2021 12:40 17,9 C 17,8 C 15,6 C 64 % 1016,7 hPa 0,0 l/m 0 min 0 min 173 W/m 19,3 km/h (3 Bft) 100,00 %
01.10.2021 12:42 17,9 C 17,8 C 15,6 C 64 % 1016,7 hPa 0,0 l/m 0 min 0 min 188 W/m 16,1 km/h (3 Bft) 100,00 %
01.10.2021 12:44 17,9 C 17,8 C 15,6 C 64 % 1016,6 hPa 0,0 l/m 0 min 0 min 175 W/m 22,5 km/h (4 Bft) 97,96 %
01.10.2021 12:46 17,9 C 17,8 C 15,6 C 64 % 1016,6 hPa 0,0 l/m 0 min 0 min 158 W/m 35,4 km/h (5 Bft) 98,11 %
01.10.2021 12:48 17,9 C 17,8 C 15,6 C 64 % 1016,6 hPa 0,0 l/m 0 min 0 min 148 W/m 16,1 km/h (3 Bft) 97,87 %
01.10.2021 12:50 18,0 C 17,8 C 15,6 C 63 % 1016,6 hPa 0,0 l/m 0 min 0 min 128 W/m 25,7 km/h (4 Bft) 97,87 %
01.10.2021 12:52 18,0 C 17,8 C 15,6 C 63 % 1016,6 hPa 0,0 l/m 0 min 0 min 123 W/m 22,5 km/h (4 Bft) 95,74 %
01.10.2021 12:54 18,0 C 17,8 C 15,6 C 63 % 1016,5 hPa 0,0 l/m 0 min 0 min 117 W/m 22,5 km/h (4 Bft) 97,87 %
01.10.2021 12:56 18,0 C 17,8 C 15,6 C 63 % 1016,5 hPa 0,0 l/m 0 min 0 min 110 W/m 19,3 km/h (3 Bft) 95,65 %
01.10.2021 12:58 18,0 C 17,8 C 15,6 C 63 % 1016,5 hPa 0,0 l/m 0 min 0 min 111 W/m 22,5 km/h (4 Bft) 97,87 %
01.10.2021 13:00 18,1 C 17,8 C 15,6 C 63 % 1016,5 hPa 0,0 l/m 0 min 0 min 110 W/m 16,1 km/h (3 Bft) 97,87 %
01.10.2021 13:02 18,1 C 17,8 C 15,6 C 63 % 1016,5 hPa 0,0 l/m 0 min 0 min 110 W/m 22,5 km/h (4 Bft) 93,62 %
01.10.2021 13:04 18,1 C 17,8 C 15,6 C 63 % 1016,5 hPa 0,0 l/m 0 min 0 min 101 W/m 22,5 km/h (4 Bft) 97,56 %
01.10.2021 13:06 18,2 C 17,8 C 15,6 C 62 % 1016,4 hPa 0,0 l/m 0 min 0 min 97 W/m 29,0 km/h (5 Bft) 98,08 %
01.10.2021 13:08 18,3 C 18,3 C 15,6 C 61 % 1016,5 hPa 0,0 l/m 0 min 0 min 97 W/m 22,5 km/h (4 Bft) 97,87 %
01.10.2021 13:10 18,3 C 18,3 C 15,6 C 61 % 1016,4 hPa 0,0 l/m 0 min 0 min 108 W/m 25,7 km/h (4 Bft) 95,74 %
01.10.2021 13:12 18,4 C 18,3 C 15,6 C 61 % 1016,4 hPa 0,0 l/m 0 min 0 min 107 W/m 16,1 km/h (3 Bft) 95,74 %
01.10.2021 13:14 18,4 C 18,3 C 15,6 C 62 % 1016,4 hPa 0,0 l/m 0 min 0 min 121 W/m 29,0 km/h (5 Bft) 93,62 %
01.10.2021 13:16 18,5 C 18,3 C 15,6 C 62 % 1016,3 hPa 0,0 l/m 0 min 0 min 127 W/m 29,0 km/h (5 Bft) 95,74 %
01.10.2021 13:18 18,6 C 18,9 C 16,1 C 62 % 1016,3 hPa 0,0 l/m 0 min 0 min 166 W/m 19,3 km/h (3 Bft) 95,65 %
01.10.2021 13:20 18,7 C 18,9 C 16,1 C 62 % 1016,3 hPa 0,0 l/m 0 min 0 min 151 W/m 16,1 km/h (3 Bft) 95,74 %
01.10.2021 13:22 18,8 C 18,9 C 16,1 C 61 % 1016,2 hPa 0,0 l/m 0 min 0 min 167 W/m 12,9 km/h (3 Bft) 95,74 %
01.10.2021 13:24 18,9 C 18,9 C 16,1 C 61 % 1016,3 hPa 0,0 l/m 0 min 0 min 199 W/m 19,3 km/h (3 Bft) 91,49 %
01.10.2021 13:26 19,0 C 18,9 C 16,1 C 61 % 1016,2 hPa 0,0 l/m 0 min 0 min 246 W/m 19,3 km/h (3 Bft) 95,74 %
01.10.2021 13:28 19,0 C 18,9 C 16,1 C 61 % 1016,2 hPa 0,0 l/m 0 min 0 min 248 W/m 16,1 km/h (3 Bft) 93,62 %
01.10.2021 13:30 19,1 C 19,4 C 16,1 C 61 % 1016,1 hPa 0,0 l/m 0 min 0 min 243 W/m 19,3 km/h (3 Bft) 95,65 %
01.10.2021 13:32 19,3 C 19,4 C 16,1 C 60 % 1016,1 hPa 0,0 l/m 0 min 0 min 239 W/m 25,7 km/h (4 Bft) 95,65 %
01.10.2021 13:34 19,3 C 19,4 C 16,1 C 60 % 1016,1 hPa 0,0 l/m 0 min 0 min 216 W/m 29,0 km/h (5 Bft) 95,74 %
01.10.2021 13:36 19,4 C 19,4 C 16,1 C 60 % 1016,1 hPa 0,0 l/m 2 min 0 min 303 W/m 22,5 km/h (4 Bft) 93,62 %
01.10.2021 13:38 19,4 C 19,4 C 16,1 C 59 % 1016,2 hPa 0,0 l/m 2 min 0 min 397 W/m 22,5 km/h (4 Bft) 93,62 %
01.10.2021 13:40 19,4 C 19,4 C 16,1 C 58 % 1016,1 hPa 0,0 l/m 2 min 0 min 610 W/m 35,4 km/h (5 Bft) 97,87 %
01.10.2021 13:42 19,4 C 19,4 C 16,1 C 57 % 1016,1 hPa 0,0 l/m 2 min 0 min 657 W/m 32,2 km/h (5 Bft) 95,65 %
01.10.2021 13:44 19,5 C 20,0 C 16,1 C 58 % 1016,0 hPa 0,0 l/m 2 min 0 min 648 W/m 25,7 km/h (4 Bft) 95,74 %
01.10.2021 13:46 19,5 C 20,0 C 16,1 C 57 % 1016,1 hPa 0,0 l/m 2 min 0 min 651 W/m 32,2 km/h (5 Bft) 93,62 %
01.10.2021 13:48 19,5 C 20,6 C 16,1 C 56 % 1016,0 hPa 0,0 l/m 2 min 0 min 653 W/m 35,4 km/h (5 Bft) 95,74 %
01.10.2021 13:50 19,6 C 21,1 C 16,1 C 56 % 1016,1 hPa 0,0 l/m 2 min 0 min 634 W/m 29,0 km/h (5 Bft) 95,74 %
01.10.2021 13:52 19,6 C 21,1 C 16,1 C 55 % 1016,0 hPa 0,0 l/m 2 min 0 min 637 W/m 29,0 km/h (5 Bft) 93,62 %
01.10.2021 13:54 19,6 C 21,7 C 16,1 C 55 % 1016,0 hPa 0,0 l/m 2 min 0 min 645 W/m 32,2 km/h (5 Bft) 93,48 %
01.10.2021 13:56 19,6 C 22,2 C 16,1 C 55 % 1015,9 hPa 0,0 l/m 2 min 0 min 656 W/m 35,4 km/h (5 Bft) 95,74 %
01.10.2021 13:58 19,6 C 22,8 C 16,1 C 55 % 1015,9 hPa 0,0 l/m 2 min 0 min 582 W/m 32,2 km/h (5 Bft) 97,87 %
01.10.2021 14:00 19,6 C 23,9 C 16,1 C 56 % 1015,9 hPa 0,0 l/m 2 min 0 min 645 W/m 22,5 km/h (4 Bft) 97,87 %
01.10.2021 14:02 19,7 C 25,0 C 16,1 C 56 % 1015,8 hPa 0,0 l/m 2 min 0 min 624 W/m 25,7 km/h (4 Bft) 97,87 %
01.10.2021 14:04 19,8 C 23,9 C 16,1 C 55 % 1015,8 hPa 0,0 l/m 2 min 0 min 621 W/m 25,7 km/h (4 Bft) 100,00 %
01.10.2021 14:06 19,8 C 22,8 C 16,1 C 56 % 1015,8 hPa 0,0 l/m 2 min 0 min 515 W/m 29,0 km/h (5 Bft) 100,00 %
01.10.2021 14:08 19,6 C 21,7 C 16,1 C 55 % 1015,7 hPa 0,0 l/m 2 min 0 min 375 W/m 35,4 km/h (5 Bft) 100,00 %
01.10.2021 14:10 19,5 C 21,7 C 16,1 C 55 % 1015,8 hPa 0,0 l/m 2 min 0 min 424 W/m 35,4 km/h (5 Bft) 97,87 %
01.10.2021 14:12 19,5 C 22,2 C 16,1 C 56 % 1015,7 hPa 0,0 l/m 2 min 0 min 566 W/m 25,7 km/h (4 Bft) 100,00 %
01.10.2021 14:14 19,4 C 22,8 C 16,1 C 56 % 1015,6 hPa 0,0 l/m 2 min 0 min 424 W/m 22,5 km/h (4 Bft) 100,00 %
01.10.2021 14:16 19,4 C 22,8 C 16,1 C 56 % 1015,6 hPa 0,0 l/m 2 min 0 min 540 W/m 32,2 km/h (5 Bft) 97,83 %
01.10.2021 14:18 19,4 C 23,3 C 16,1 C 56 % 1015,6 hPa 0,0 l/m 2 min 0 min 555 W/m 22,5 km/h (4 Bft) 100,00 %
01.10.2021 14:20 19,4 C 24,4 C 16,1 C 57 % 1015,6 hPa 0,0 l/m 2 min 0 min 570 W/m 16,1 km/h (3 Bft) 97,87 %
01.10.2021 14:22 19,7 C 25,0 C 16,1 C 57 % 1015,5 hPa 0,0 l/m 2 min 0 min 573 W/m 16,1 km/h (3 Bft) 100,00 %
01.10.2021 14:24 19,8 C 25,0 C 16,1 C 56 % 1015,4 hPa 0,0 l/m 2 min 0 min 531 W/m 25,7 km/h (4 Bft) 100,00 %
01.10.2021 14:26 19,9 C 25,0 C 16,1 C 56 % 1015,4 hPa 0,0 l/m 2 min 0 min 596 W/m 19,3 km/h (3 Bft) 100,00 %
01.10.2021 14:28 19,9 C 24,4 C 16,1 C 58 % 1015,4 hPa 0,0 l/m 2 min 0 min 551 W/m 22,5 km/h (4 Bft) 100,00 %
01.10.2021 14:30 19,8 C 23,9 C 16,1 C 59 % 1015,4 hPa 0,0 l/m 2 min 0 min 555 W/m 16,1 km/h (3 Bft) 100,00 %
01.10.2021 14:32 19,6 C 23,3 C 16,1 C 60 % 1015,4 hPa 0,0 l/m 2 min 0 min 592 W/m 16,1 km/h (3 Bft) 100,00 %
01.10.2021 14:34 19,7 C 22,8 C 16,1 C 59 % 1015,4 hPa 0,0 l/m 2 min 0 min 579 W/m 19,3 km/h (3 Bft) 100,00 %
01.10.2021 14:36 19,8 C 22,2 C 16,1 C 59 % 1015,4 hPa 0,0 l/m 2 min 0 min 547 W/m 22,5 km/h (4 Bft) 100,00 %
01.10.2021 14:38 19,8 C 21,1 C 16,1 C 59 % 1015,5 hPa 0,0 l/m 2 min 0 min 552 W/m 19,3 km/h (3 Bft) 100,00 %
01.10.2021 14:40 19,8 C 21,1 C 16,1 C 60 % 1015,4 hPa 0,0 l/m 2 min 0 min 508 W/m 22,5 km/h (4 Bft) 100,00 %
01.10.2021 14:42 19,7 C 20,6 C 16,1 C 59 % 1015,4 hPa 0,0 l/m 2 min 0 min 532 W/m 19,3 km/h (3 Bft) 100,00 %
01.10.2021 14:44 19,8 C 20,6 C 16,1 C 60 % 1015,4 hPa 0,0 l/m 2 min 0 min 562 W/m 16,1 km/h (3 Bft) 100,00 %
01.10.2021 14:46 19,8 C 20,6 C 16,1 C 58 % 1015,4 hPa 0,0 l/m 2 min 0 min 514 W/m 19,3 km/h (3 Bft) 100,00 %
01.10.2021 14:48 19,8 C 20,0 C 16,1 C 59 % 1015,4 hPa 0,0 l/m 2 min 0 min 410 W/m 19,3 km/h (3 Bft) 100,00 %
01.10.2021 14:50 19,6 C 20,0 C 16,1 C 59 % 1015,3 hPa 0,0 l/m 2 min 0 min 408 W/m 16,1 km/h (3 Bft) 100,00 %
01.10.2021 14:52 19,6 C 20,0 C 16,1 C 59 % 1015,4 hPa 0,0 l/m 2 min 0 min 361 W/m 16,1 km/h (3 Bft) 100,00 %
01.10.2021 14:54 19,5 C 20,0 C 16,1 C 58 % 1015,4 hPa 0,0 l/m 2 min 0 min 325 W/m 25,7 km/h (4 Bft) 100,00 %
01.10.2021 14:56 19,5 C 20,0 C 16,1 C 56 % 1015,3 hPa 0,0 l/m 2 min 0 min 418 W/m 32,2 km/h (5 Bft) 100,00 %
01.10.2021 14:58 19,5 C 19,4 C 16,1 C 55 % 1015,4 hPa 0,0 l/m 2 min 0 min 402 W/m 45,1 km/h (6 Bft) 100,00 %
01.10.2021 15:00 19,4 C 19,4 C 16,1 C 55 % 1015,4 hPa 0,0 l/m 2 min 0 min 339 W/m 45,1 km/h (6 Bft) 100,00 %
01.10.2021 15:02 19,3 C 19,4 C 16,1 C 54 % 1015,4 hPa 0,0 l/m 2 min 0 min 291 W/m 48,3 km/h (6 Bft) 97,87 %
01.10.2021 15:04 19,3 C 19,4 C 16,1 C 55 % 1015,2 hPa 0,0 l/m 2 min 0 min 310 W/m 12,9 km/h (3 Bft) 100,00 %
01.10.2021 15:06 19,3 C 19,4 C 16,1 C 56 % 1015,2 hPa 0,0 l/m 2 min 0 min 314 W/m 19,3 km/h (3 Bft) 100,00 %
01.10.2021 15:08 19,3 C 19,4 C 16,1 C 56 % 1015,2 hPa 0,0 l/m 2 min 0 min 317 W/m 22,5 km/h (4 Bft) 100,00 %
01.10.2021 15:10 19,3 C 19,4 C 16,1 C 56 % 1015,1 hPa 0,0 l/m 2 min 0 min 331 W/m 35,4 km/h (5 Bft) 100,00 %
01.10.2021 15:12 19,2 C 19,4 C 16,1 C 57 % 1015,2 hPa 0,0 l/m 2 min 0 min 398 W/m 19,3 km/h (3 Bft) 100,00 %
01.10.2021 15:14 19,3 C 19,4 C 16,1 C 57 % 1015,2 hPa 0,0 l/m 2 min 0 min 332 W/m 25,7 km/h (4 Bft) 100,00 %
01.10.2021 15:16 19,3 C 19,4 C 16,1 C 57 % 1015,2 hPa 0,0 l/m 2 min 0 min 289 W/m 29,0 km/h (5 Bft) 100,00 %
01.10.2021 15:18 19,3 C 19,4 C 16,1 C 57 % 1015,2 hPa 0,0 l/m 2 min 0 min 281 W/m 22,5 km/h (4 Bft) 100,00 %
01.10.2021 15:20 19,3 C 19,4 C 16,1 C 56 % 1015,2 hPa 0,0 l/m 2 min 0 min 277 W/m 38,6 km/h (5 Bft) 97,87 %
01.10.2021 15:22 19,2 C 19,4 C 16,1 C 57 % 1015,1 hPa 0,0 l/m 2 min 0 min 310 W/m 35,4 km/h (5 Bft) 97,87 %
01.10.2021 15:24 19,3 C 19,4 C 16,1 C 58 % 1015,0 hPa 0,0 l/m 2 min 0 min 347 W/m 19,3 km/h (3 Bft) 97,87 %
01.10.2021 15:26 19,3 C 19,4 C 16,1 C 57 % 1015,0 hPa 0,0 l/m 2 min 0 min 333 W/m 16,1 km/h (3 Bft) 97,87 %
01.10.2021 15:28 19,4 C 20,0 C 16,1 C 58 % 1015,1 hPa 0,0 l/m 2 min 0 min 362 W/m 12,9 km/h (3 Bft) 97,83 %
01.10.2021 15:30 19,5 C 20,0 C 16,1 C 57 % 1015,0 hPa 0,0 l/m 2 min 0 min 320 W/m 25,7 km/h (4 Bft) 97,87 %
01.10.2021 15:32 19,6 C 20,0 C 16,1 C 58 % 1015,0 hPa 0,0 l/m 2 min 0 min 362 W/m 16,1 km/h (3 Bft) 95,74 %
01.10.2021 15:34 19,6 C 20,0 C 16,1 C 57 % 1015,0 hPa 0,0 l/m 2 min 0 min 405 W/m 25,7 km/h (4 Bft) 97,87 %
01.10.2021 15:36 19,7 C 20,0 C 16,1 C 57 % 1015,0 hPa 0,0 l/m 2 min 0 min 355 W/m 22,5 km/h (4 Bft) 97,87 %
01.10.2021 15:38 19,8 C 20,0 C 16,7 C 57 % 1015,0 hPa 0,0 l/m 2 min 0 min 402 W/m 29,0 km/h (5 Bft) 95,65 %
01.10.2021 15:40 19,8 C 20,0 C 16,7 C 56 % 1015,0 hPa 0,0 l/m 2 min 0 min 383 W/m 29,0 km/h (5 Bft) 95,74 %
01.10.2021 15:42 19,9 C 20,6 C 16,7 C 57 % 1015,0 hPa 0,0 l/m 2 min 0 min 416 W/m 12,9 km/h (3 Bft) 95,12 %
01.10.2021 15:44 19,9 C 20,0 C 16,7 C 56 % 1015,0 hPa 0,0 l/m 2 min 0 min 391 W/m 25,7 km/h (4 Bft) 95,74 %
01.10.2021 15:46 19,8 C 20,0 C 16,7 C 57 % 1014,9 hPa 0,0 l/m 2 min 0 min 328 W/m 19,3 km/h (3 Bft) 96,23 %
01.10.2021 15:48 19,8 C 20,0 C 16,7 C 57 % 1014,9 hPa 0,0 l/m 2 min 0 min 305 W/m 22,5 km/h (4 Bft) 95,74 %
01.10.2021 15:50 19,7 C 20,0 C 16,1 C 55 % 1015,1 hPa 0,0 l/m 2 min 0 min 306 W/m 25,7 km/h (4 Bft) 93,48 %
01.10.2021 15:52 19,5 C 20,0 C 16,1 C 56 % 1015,0 hPa 0,0 l/m 2 min 0 min 330 W/m 25,7 km/h (4 Bft) 93,62 %
01.10.2021 15:54 19,5 C 19,4 C 16,1 C 56 % 1014,9 hPa 0,0 l/m 2 min 0 min 391 W/m 29,0 km/h (5 Bft) 95,74 %
01.10.2021 15:56 19,4 C 19,4 C 16,1 C 56 % 1015,1 hPa 0,0 l/m 2 min 0 min 427 W/m 35,4 km/h (5 Bft) 95,74 %
01.10.2021 15:58 19,4 C 19,4 C 16,1 C 55 % 1015,0 hPa 0,0 l/m 2 min 0 min 432 W/m 29,0 km/h (5 Bft) 95,74 %
01.10.2021 16:00 19,5 C 19,4 C 16,1 C 56 % 1014,9 hPa 0,0 l/m 2 min 0 min 453 W/m 19,3 km/h (3 Bft) 95,74 %
01.10.2021 16:02 19,5 C 20,0 C 16,1 C 56 % 1014,9 hPa 0,0 l/m 2 min 0 min 401 W/m 29,0 km/h (5 Bft) 97,83 %
01.10.2021 16:04 19,4 C 19,4 C 16,1 C 55 % 1015,0 hPa 0,0 l/m 2 min 0 min 350 W/m 35,4 km/h (5 Bft) 95,24 %
01.10.2021 16:06 19,4 C 19,4 C 16,1 C 56 % 1014,8 hPa 0,0 l/m 2 min 0 min 331 W/m 25,7 km/h (4 Bft) 97,87 %
01.10.2021 16:08 19,3 C 19,4 C 16,1 C 56 % 1014,8 hPa 0,0 l/m 2 min 0 min 320 W/m 22,5 km/h (4 Bft) 95,74 %
01.10.2021 16:10 19,3 C 19,4 C 16,1 C 57 % 1014,8 hPa 0,0 l/m 2 min 0 min 278 W/m 19,3 km/h (3 Bft) 95,74 %
01.10.2021 16:12 19,2 C 19,4 C 16,1 C 57 % 1014,8 hPa 0,0 l/m 2 min 0 min 230 W/m 22,5 km/h (4 Bft) 97,87 %
01.10.2021 16:14 19,2 C 19,4 C 16,1 C 57 % 1014,8 hPa 0,0 l/m 2 min 0 min 222 W/m 16,1 km/h (3 Bft) 97,83 %
01.10.2021 16:16 19,1 C 18,9 C 15,6 C 57 % 1014,8 hPa 0,0 l/m 0 min 0 min 202 W/m 29,0 km/h (5 Bft) 95,74 %
01.10.2021 16:18 19,0 C 18,9 C 15,6 C 57 % 1014,7 hPa 0,0 l/m 0 min 0 min 199 W/m 22,5 km/h (4 Bft) 98,08 %
01.10.2021 16:20 19,0 C 18,9 C 15,6 C 58 % 1014,7 hPa 0,0 l/m 0 min 0 min 184 W/m 22,5 km/h (4 Bft) 100,00 %
01.10.2021 16:22 19,0 C 18,9 C 15,6 C 58 % 1014,6 hPa 0,0 l/m 0 min 0 min 178 W/m 12,9 km/h (3 Bft) 100,00 %
01.10.2021 16:24 18,9 C 18,9 C 15,6 C 58 % 1014,6 hPa 0,0 l/m 0 min 0 min 176 W/m 25,7 km/h (4 Bft) 97,87 %
01.10.2021 16:26 18,9 C 18,9 C 15,6 C 58 % 1014,6 hPa 0,0 l/m 0 min 0 min 174 W/m 19,3 km/h (3 Bft) 97,83 %
01.10.2021 16:28 18,9 C 18,9 C 15,6 C 59 % 1014,6 hPa 0,0 l/m 0 min 0 min 174 W/m 16,1 km/h (3 Bft) 97,87 %
01.10.2021 16:30 18,9 C 18,9 C 15,6 C 59 % 1014,6 hPa 0,0 l/m 0 min 0 min 174 W/m 6,4 km/h (2 Bft) 97,87 %
01.10.2021 16:32 18,9 C 18,9 C 15,6 C 60 % 1014,5 hPa 0,0 l/m 0 min 0 min 179 W/m 16,1 km/h (3 Bft) 97,87 %
01.10.2021 16:34 18,9 C 18,9 C 15,6 C 59 % 1014,5 hPa 0,0 l/m 2 min 0 min 188 W/m 16,1 km/h (3 Bft) 95,74 %
01.10.2021 16:36 18,9 C 18,9 C 15,6 C 59 % 1014,5 hPa 0,0 l/m 2 min 0 min 201 W/m 22,5 km/h (4 Bft) 97,83 %
01.10.2021 16:38 18,9 C 18,9 C 15,6 C 59 % 1014,5 hPa 0,0 l/m 2 min 0 min 196 W/m 19,3 km/h (3 Bft) 97,87 %
01.10.2021 16:40 18,9 C 18,9 C 15,6 C 59 % 1014,5 hPa 0,0 l/m 2 min 0 min 187 W/m 19,3 km/h (3 Bft) 97,87 %
01.10.2021 16:42 18,9 C 18,9 C 15,6 C 59 % 1014,5 hPa 0,0 l/m 2 min 0 min 179 W/m 19,3 km/h (3 Bft) 95,74 %
01.10.2021 16:44 18,9 C 18,9 C 15,6 C 59 % 1014,5 hPa 0,0 l/m 0 min 0 min 174 W/m 16,1 km/h (3 Bft) 97,87 %
01.10.2021 16:46 18,9 C 18,9 C 15,6 C 58 % 1014,5 hPa 0,0 l/m 0 min 0 min 170 W/m 25,7 km/h (4 Bft) 97,87 %
01.10.2021 16:48 18,8 C 18,9 C 15,6 C 59 % 1014,5 hPa 0,0 l/m 0 min 0 min 163 W/m 16,1 km/h (3 Bft) 97,83 %
01.10.2021 16:50 18,8 C 18,9 C 15,6 C 59 % 1014,4 hPa 0,0 l/m 0 min 0 min 160 W/m 12,9 km/h (3 Bft) 97,87 %
01.10.2021 16:52 18,8 C 18,9 C 15,6 C 59 % 1014,4 hPa 0,0 l/m 0 min 0 min 158 W/m 16,1 km/h (3 Bft) 97,87 %
01.10.2021 16:54 18,8 C 18,9 C 15,6 C 59 % 1014,4 hPa 0,0 l/m 0 min 0 min 153 W/m 16,1 km/h (3 Bft) 97,87 %
01.10.2021 16:56 18,7 C 18,3 C 15,6 C 59 % 1014,4 hPa 0,0 l/m 0 min 0 min 149 W/m 22,5 km/h (4 Bft) 97,87 %
01.10.2021 16:58 18,7 C 18,3 C 15,6 C 60 % 1014,4 hPa 0,0 l/m 0 min 0 min 148 W/m 19,3 km/h (3 Bft) 97,87 %
01.10.2021 17:00 18,6 C 18,3 C 15,6 C 60 % 1014,3 hPa 0,0 l/m 0 min 0 min 148 W/m 16,1 km/h (3 Bft) 97,83 %
01.10.2021 17:02 18,6 C 18,3 C 15,6 C 61 % 1014,3 hPa 0,0 l/m 0 min 0 min 145 W/m 16,1 km/h (3 Bft) 97,87 %
01.10.2021 17:04 18,6 C 18,3 C 15,6 C 61 % 1014,3 hPa 0,0 l/m 0 min 0 min 143 W/m 16,1 km/h (3 Bft) 97,92 %
01.10.2021 17:06 18,6 C 18,3 C 15,6 C 61 % 1014,3 hPa 0,0 l/m 0 min 0 min 136 W/m 12,9 km/h (3 Bft) 97,87 %
01.10.2021 17:08 18,6 C 18,3 C 15,6 C 61 % 1014,3 hPa 0,0 l/m 0 min 0 min 125 W/m 16,1 km/h (3 Bft) 97,87 %
01.10.2021 17:10 18,6 C 18,3 C 15,6 C 62 % 1014,3 hPa 0,0 l/m 0 min 0 min 116 W/m 16,1 km/h (3 Bft) 95,74 %
01.10.2021 17:12 18,6 C 18,3 C 15,0 C 61 % 1014,3 hPa 0,0 l/m 0 min 0 min 107 W/m 16,1 km/h (3 Bft) 95,65 %
01.10.2021 17:14 18,5 C 18,3 C 15,0 C 62 % 1014,3 hPa 0,0 l/m 0 min 0 min 97 W/m 12,9 km/h (3 Bft) 97,87 %
01.10.2021 17:16 18,5 C 17,8 C 15,0 C 62 % 1014,3 hPa 0,0 l/m 0 min 0 min 90 W/m 6,4 km/h (2 Bft) 97,87 %
01.10.2021 17:18 18,5 C 17,8 C 15,0 C 62 % 1014,3 hPa 0,0 l/m 0 min 0 min 82 W/m 9,7 km/h (2 Bft) 100,00 %
01.10.2021 17:20 18,4 C 17,8 C 15,0 C 63 % 1014,3 hPa 0,0 l/m 0 min 0 min 78 W/m 9,7 km/h (2 Bft) 100,00 %
01.10.2021 17:22 18,4 C 17,8 C 15,0 C 63 % 1014,3 hPa 0,0 l/m 0 min 0 min 76 W/m 12,9 km/h (3 Bft) 97,87 %
01.10.2021 17:24 18,3 C 17,8 C 15,0 C 63 % 1014,2 hPa 0,0 l/m 0 min 0 min 73 W/m 16,1 km/h (3 Bft) 100,00 %
01.10.2021 17:26 18,3 C 17,8 C 15,0 C 63 % 1014,2 hPa 0,0 l/m 0 min 0 min 70 W/m 6,4 km/h (2 Bft) 100,00 %
01.10.2021 17:28 18,3 C 17,8 C 15,0 C 63 % 1014,2 hPa 0,0 l/m 0 min 0 min 66 W/m 6,4 km/h (2 Bft) 100,00 %
01.10.2021 17:30 18,2 C 17,2 C 15,0 C 63 % 1014,2 hPa 0,0 l/m 0 min 0 min 63 W/m 12,9 km/h (3 Bft) 97,87 %
01.10.2021 17:32 18,2 C 17,2 C 15,0 C 64 % 1014,2 hPa 0,0 l/m 0 min 0 min 59 W/m 12,9 km/h (3 Bft) 100,00 %
01.10.2021 17:34 18,1 C 17,2 C 14,5 C 64 % 1014,2 hPa 0,0 l/m 0 min 0 min 56 W/m 12,9 km/h (3 Bft) 100,00 %
01.10.2021 17:36 18,1 C 17,2 C 14,5 C 63 % 1014,2 hPa 0,0 l/m 0 min 0 min 57 W/m 12,9 km/h (3 Bft) 100,00 %
01.10.2021 17:38 18,1 C 17,2 C 14,5 C 63 % 1014,2 hPa 0,0 l/m 0 min 0 min 58 W/m 16,1 km/h (3 Bft) 100,00 %
01.10.2021 17:40 18,0 C 17,2 C 14,5 C 63 % 1014,1 hPa 0,0 l/m 0 min 0 min 57 W/m 19,3 km/h (3 Bft) 100,00 %
01.10.2021 17:42 18,0 C 17,2 C 14,5 C 63 % 1014,2 hPa 0,0 l/m 0 min 0 min 53 W/m 12,9 km/h (3 Bft) 100,00 %
01.10.2021 17:44 18,0 C 17,2 C 14,5 C 63 % 1014,1 hPa 0,0 l/m 0 min 0 min 47 W/m 12,9 km/h (3 Bft) 100,00 %
01.10.2021 17:46 18,0 C 17,2 C 14,5 C 63 % 1014,1 hPa 0,0 l/m 0 min 0 min 39 W/m 12,9 km/h (3 Bft) 100,00 %
01.10.2021 17:48 17,9 C 17,2 C 14,5 C 63 % 1014,1 hPa 0,0 l/m 0 min 0 min 32 W/m 9,7 km/h (2 Bft) 97,87 %
01.10.2021 17:50 17,9 C 16,7 C 14,5 C 64 % 1014,1 hPa 0,0 l/m 0 min 0 min 26 W/m 9,7 km/h (2 Bft) 95,74 %
01.10.2021 17:52 17,9 C 16,7 C 14,5 C 64 % 1014,1 hPa 0,0 l/m 0 min 0 min 25 W/m 12,9 km/h (3 Bft) 93,62 %
01.10.2021 17:54 17,8 C 16,7 C 13,9 C 64 % 1014,2 hPa 0,0 l/m 0 min 0 min 23 W/m 16,1 km/h (3 Bft) 95,74 %
01.10.2021 17:56 17,8 C 16,7 C 13,9 C 66 % 1014,2 hPa 0,0 l/m 0 min 2 min 23 W/m 22,5 km/h (4 Bft) 95,74 %
01.10.2021 17:58 17,8 C 16,7 C 13,4 C 67 % 1014,2 hPa 0,0 l/m 0 min 0 min 23 W/m 6,4 km/h (2 Bft) 95,65 %
01.10.2021 18:00 17,7 C 16,7 C 13,4 C 67 % 1014,2 hPa 0,0 l/m 0 min 0 min 19 W/m 6,4 km/h (2 Bft) 95,74 %
01.10.2021 18:02 17,6 C 16,7 C 13,4 C 67 % 1014,2 hPa 0,0 l/m 0 min 0 min 16 W/m 6,4 km/h (2 Bft) 95,74 %
01.10.2021 18:04 17,6 C 16,1 C 13,4 C 67 % 1014,2 hPa 0,0 l/m 0 min 2 min 13 W/m 12,9 km/h (3 Bft) 95,83 %
01.10.2021 18:08 17,5 C 16,1 C 12,8 C 68 % 1014,2 hPa 0,0 l/m 0 min 4 min 11 W/m 12,9 km/h (3 Bft) 95,12 %
01.10.2021 18:10 17,4 C 16,1 C 12,3 C 69 % 1014,2 hPa 0,0 l/m 0 min 2 min 11 W/m 9,7 km/h (2 Bft) 95,74 %
01.10.2021 18:12 17,3 C 15,6 C 11,7 C 69 % 1014,3 hPa 0,0 l/m 0 min 2 min 11 W/m 9,7 km/h (2 Bft) 95,65 %
01.10.2021 18:14 17,2 C 15,6 C 11,7 C 70 % 1014,3 hPa 0,0 l/m 0 min 2 min 11 W/m 9,7 km/h (2 Bft) 93,62 %
01.10.2021 18:16 17,0 C 15,6 C 11,1 C 71 % 1014,3 hPa 0,0 l/m 0 min 2 min 12 W/m 12,9 km/h (3 Bft) 95,74 %
01.10.2021 18:18 16,9 C 15,6 C 11,1 C 71 % 1014,3 hPa 0,0 l/m 0 min 0 min 12 W/m 9,7 km/h (2 Bft) 95,74 %
01.10.2021 18:20 16,9 C 15,6 C 11,1 C 72 % 1014,3 hPa 0,0 l/m 0 min 0 min 14 W/m 9,7 km/h (2 Bft) 95,74 %
01.10.2021 18:22 16,8 C 15,6 C 11,1 C 72 % 1014,4 hPa 0,0 l/m 0 min 0 min 15 W/m 9,7 km/h (2 Bft) 95,74 %
01.10.2021 18:24 16,7 C 15,6 C 11,1 C 72 % 1014,3 hPa 0,0 l/m 0 min 0 min 16 W/m 6,4 km/h (2 Bft) 97,83 %
01.10.2021 18:26 16,6 C 15,0 C 11,1 C 72 % 1014,4 hPa 0,0 l/m 0 min 0 min 16 W/m 9,7 km/h (2 Bft) 95,74 %
01.10.2021 18:28 16,6 C 15,0 C 11,7 C 73 % 1014,4 hPa 0,0 l/m 0 min 0 min 14 W/m 6,4 km/h (2 Bft) 97,87 %
01.10.2021 18:30 16,5 C 15,0 C 11,7 C 73 % 1014,4 hPa 0,0 l/m 0 min 0 min 14 W/m 6,4 km/h (2 Bft) 97,87 %
01.10.2021 18:32 16,5 C 15,0 C 11,7 C 73 % 1014,3 hPa 0,0 l/m 0 min 0 min 14 W/m 6,4 km/h (2 Bft) 95,74 %
01.10.2021 18:34 16,4 C 15,0 C 11,7 C 73 % 1014,3 hPa 0,0 l/m 0 min 0 min 14 W/m 3,2 km/h (1 Bft) 97,87 %
01.10.2021 18:36 16,4 C 15,0 C 11,7 C 73 % 1014,3 hPa 0,0 l/m 0 min 0 min 15 W/m 3,2 km/h (1 Bft) 97,83 %
01.10.2021 18:38 16,4 C 15,0 C 11,7 C 74 % 1014,3 hPa 0,0 l/m 0 min 0 min 14 W/m 6,4 km/h (2 Bft) 97,87 %
01.10.2021 18:40 16,3 C 15,0 C 12,3 C 74 % 1014,3 hPa 0,0 l/m 0 min 0 min 12 W/m 6,4 km/h (2 Bft) 100,00 %
01.10.2021 18:42 16,2 C 15,0 C 12,3 C 74 % 1014,2 hPa 0,0 l/m 0 min 0 min 12 W/m 6,4 km/h (2 Bft) 95,74 %
01.10.2021 18:44 16,1 C 15,0 C 12,3 C 73 % 1014,3 hPa 0,0 l/m 0 min 0 min 12 W/m 6,4 km/h (2 Bft) 100,00 %
01.10.2021 18:46 16,1 C 15,0 C 12,3 C 73 % 1014,3 hPa 0,0 l/m 0 min 0 min 11 W/m 9,7 km/h (2 Bft) 100,00 %
01.10.2021 18:48 16,1 C 15,0 C 12,3 C 73 % 1014,3 hPa 0,0 l/m 0 min 0 min 9 W/m 9,7 km/h (2 Bft) 97,83 %
01.10.2021 18:50 16,0 C 15,0 C 12,3 C 73 % 1014,2 hPa 0,0 l/m 0 min 0 min 7 W/m 6,4 km/h (2 Bft) 97,87 %
01.10.2021 18:52 16,0 C 15,0 C 12,3 C 74 % 1014,2 hPa 0,0 l/m 0 min 0 min 7 W/m 9,7 km/h (2 Bft) 97,87 %
01.10.2021 18:54 16,0 C 15,0 C 12,3 C 74 % 1014,3 hPa 0,0 l/m 0 min 0 min 6 W/m 6,4 km/h (2 Bft) 100,00 %
01.10.2021 18:56 15,9 C 15,0 C 12,3 C 74 % 1014,2 hPa 0,0 l/m 0 min 0 min 5 W/m 6,4 km/h (2 Bft) 97,87 %
01.10.2021 18:58 15,9 C 15,0 C 12,3 C 74 % 1014,2 hPa 0,0 l/m 0 min 0 min 5 W/m 6,4 km/h (2 Bft) 100,00 %
01.10.2021 19:00 15,9 C 15,0 C 12,3 C 74 % 1014,2 hPa 0,0 l/m 0 min 0 min 3 W/m 6,4 km/h (2 Bft) 100,00 %
01.10.2021 19:02 15,9 C 15,0 C 12,3 C 74 % 1014,1 hPa 0,0 l/m 0 min 0 min 0 W/m 9,7 km/h (2 Bft) 100,00 %
01.10.2021 19:04 15,8 C 15,0 C 12,3 C 74 % 1014,1 hPa 0,0 l/m 0 min 0 min 0 W/m 9,7 km/h (2 Bft) 95,83 %
01.10.2021 19:06 15,8 C 15,0 C 12,3 C 74 % 1014,2 hPa 0,0 l/m 0 min 0 min 0 W/m 6,4 km/h (2 Bft) 100,00 %
01.10.2021 19:08 15,8 C 15,0 C 12,3 C 74 % 1014,2 hPa 0,0 l/m 0 min 0 min 0 W/m 9,7 km/h (2 Bft) 100,00 %
01.10.2021 19:10 15,8 C 15,0 C 12,3 C 74 % 1014,2 hPa 0,0 l/m 0 min 0 min 0 W/m 12,9 km/h (3 Bft) 100,00 %
01.10.2021 19:12 15,8 C 15,0 C 12,3 C 74 % 1014,2 hPa 0,0 l/m 0 min 0 min 0 W/m 6,4 km/h (2 Bft) 97,87 %
01.10.2021 19:14 15,8 C 15,0 C 12,3 C 74 % 1014,2 hPa 0,0 l/m 0 min 0 min 0 W/m 3,2 km/h (1 Bft) 95,74 %
01.10.2021 19:16 15,8 C 15,0 C 12,3 C 74 % 1014,2 hPa 0,0 l/m 0 min 0 min 0 W/m 3,2 km/h (1 Bft) 97,87 %
01.10.2021 19:18 15,7 C 15,0 C 12,3 C 74 % 1014,2 hPa 0,0 l/m 0 min 0 min 0 W/m 6,4 km/h (2 Bft) 97,87 %
01.10.2021 19:20 15,7 C 15,0 C 12,3 C 74 % 1014,2 hPa 0,0 l/m 0 min 0 min 0 W/m 3,2 km/h (1 Bft) 97,87 %
01.10.2021 19:22 15,7 C 15,0 C 12,3 C 74 % 1014,3 hPa 0,0 l/m 0 min 0 min 0 W/m 6,4 km/h (2 Bft) 97,83 %
01.10.2021 19:24 15,6 C 15,0 C 12,3 C 74 % 1014,3 hPa 0,0 l/m 0 min 0 min 0 W/m 6,4 km/h (2 Bft) 95,74 %
01.10.2021 19:26 15,6 C 15,0 C 12,3 C 75 % 1014,3 hPa 0,0 l/m 0 min 0 min 0 W/m 6,4 km/h (2 Bft) 93,62 %
01.10.2021 19:28 15,6 C 15,0 C 12,3 C 74 % 1014,2 hPa 0,0 l/m 0 min 0 min 0 W/m 9,7 km/h (2 Bft) 97,87 %
01.10.2021 19:30 15,6 C 15,0 C 12,3 C 75 % 1014,2 hPa 0,0 l/m 0 min 0 min 0 W/m 6,4 km/h (2 Bft) 97,87 %
01.10.2021 19:32 15,6 C 15,0 C 12,3 C 75 % 1014,2 hPa 0,0 l/m 0 min 0 min 0 W/m 9,7 km/h (2 Bft) 95,74 %
01.10.2021 19:34 15,6 C 15,0 C 12,3 C 75 % 1014,2 hPa 0,0 l/m 0 min 0 min 0 W/m 12,9 km/h (3 Bft) 95,65 %
01.10.2021 19:36 15,6 C 14,4 C 12,3 C 75 % 1014,1 hPa 0,0 l/m 0 min 0 min 0 W/m 6,4 km/h (2 Bft) 97,87 %
01.10.2021 19:38 15,5 C 14,4 C 12,3 C 75 % 1014,2 hPa 0,0 l/m 0 min 0 min 0 W/m 9,7 km/h (2 Bft) 97,87 %
01.10.2021 19:40 15,5 C 14,4 C 12,3 C 75 % 1014,2 hPa 0,0 l/m 0 min 0 min 0 W/m 3,2 km/h (1 Bft) 97,87 %
01.10.2021 19:42 15,5 C 14,4 C 12,3 C 75 % 1014,2 hPa 0,0 l/m 0 min 0 min 0 W/m 6,4 km/h (2 Bft) 97,87 %
01.10.2021 19:44 15,5 C 14,4 C 12,3 C 75 % 1014,2 hPa 0,0 l/m 0 min 0 min 0 W/m 6,4 km/h (2 Bft) 95,74 %
01.10.2021 19:46 15,5 C 14,4 C 12,3 C 75 % 1014,2 hPa 0,0 l/m 0 min 0 min 0 W/m 6,4 km/h (2 Bft) 95,65 %
01.10.2021 19:48 15,5 C 14,4 C 12,3 C 75 % 1014,2 hPa 0,0 l/m 0 min 0 min 0 W/m 12,9 km/h (3 Bft) 95,74 %
01.10.2021 19:50 15,5 C 14,4 C 12,3 C 76 % 1014,3 hPa 0,0 l/m 0 min 0 min 0 W/m 6,4 km/h (2 Bft) 95,74 %
01.10.2021 19:52 15,5 C 14,4 C 12,3 C 76 % 1014,2 hPa 0,0 l/m 0 min 0 min 0 W/m 9,7 km/h (2 Bft) 95,74 %
01.10.2021 19:54 15,5 C 14,4 C 12,3 C 76 % 1014,2 hPa 0,0 l/m 0 min 0 min 0 W/m 9,7 km/h (2 Bft) 97,87 %
01.10.2021 19:56 15,5 C 14,4 C 12,3 C 76 % 1014,2 hPa 0,0 l/m 0 min 0 min 0 W/m 6,4 km/h (2 Bft) 95,74 %
01.10.2021 19:58 15,5 C 14,4 C 12,3 C 76 % 1014,2 hPa 0,0 l/m 0 min 0 min 0 W/m 6,4 km/h (2 Bft) 95,65 %
01.10.2021 20:00 15,4 C 14,4 C 12,3 C 76 % 1014,2 hPa 0,0 l/m 0 min 0 min 0 W/m 3,2 km/h (1 Bft) 97,87 %
01.10.2021 20:02 15,4 C 14,4 C 12,3 C 76 % 1014,2 hPa 0,0 l/m 0 min 0 min 0 W/m 6,4 km/h (2 Bft) 97,87 %
01.10.2021 20:04 15,4 C 14,4 C 12,3 C 76 % 1014,2 hPa 0,0 l/m 0 min 0 min 0 W/m 3,2 km/h (1 Bft) 97,87 %
01.10.2021 20:06 15,4 C 14,4 C 12,3 C 76 % 1014,2 hPa 0,0 l/m 0 min 0 min 0 W/m 3,2 km/h (1 Bft) 95,74 %
01.10.2021 20:08 15,4 C 14,4 C 12,3 C 76 % 1014,2 hPa 0,0 l/m 0 min 0 min 0 W/m 6,4 km/h (2 Bft) 97,83 %
01.10.2021 20:10 15,4 C 14,4 C 12,3 C 76 % 1014,2 hPa 0,0 l/m 0 min 0 min 0 W/m 3,2 km/h (1 Bft) 95,74 %
01.10.2021 20:12 15,4 C 14,4 C 12,3 C 76 % 1014,3 hPa 0,0 l/m 0 min 0 min 0 W/m 3,2 km/h (1 Bft) 93,62 %
01.10.2021 20:14 15,4 C 14,4 C 12,3 C 76 % 1014,2 hPa 0,0 l/m 0 min 0 min 0 W/m 6,4 km/h (2 Bft) 100,00 %
01.10.2021 20:16 15,4 C 14,4 C 12,3 C 76 % 1014,3 hPa 0,0 l/m 0 min 2 min 0 W/m 6,4 km/h (2 Bft) 97,87 %
01.10.2021 20:18 15,4 C 14,4 C 11,7 C 76 % 1014,3 hPa 0,0 l/m 0 min 2 min 0 W/m 6,4 km/h (2 Bft) 100,00 %
01.10.2021 20:20 15,4 C 14,4 C 11,7 C 77 % 1014,3 hPa 0,0 l/m 0 min 2 min 0 W/m 6,4 km/h (2 Bft) 97,83 %
01.10.2021 20:22 15,4 C 14,4 C 11,7 C 77 % 1014,3 hPa 0,0 l/m 0 min 0 min 0 W/m 3,2 km/h (1 Bft) 100,00 %
01.10.2021 20:24 15,4 C 14,4 C 11,7 C 77 % 1014,3 hPa 0,0 l/m 0 min 2 min 0 W/m 3,2 km/h (1 Bft) 100,00 %
01.10.2021 20:26 15,4 C 14,4 C 11,7 C 77 % 1014,3 hPa 0,0 l/m 0 min 2 min 0 W/m 6,4 km/h (2 Bft) 100,00 %
01.10.2021 20:28 15,4 C 14,4 C 11,7 C 78 % 1014,3 hPa 0,0 l/m 0 min 2 min 0 W/m 3,2 km/h (1 Bft) 100,00 %
01.10.2021 20:30 15,3 C 14,4 C 11,7 C 78 % 1014,4 hPa 0,0 l/m 0 min 2 min 0 W/m 6,4 km/h (2 Bft) 100,00 %
01.10.2021 20:32 15,3 C 14,4 C 11,7 C 78 % 1014,4 hPa 0,0 l/m 0 min 0 min 0 W/m 9,7 km/h (2 Bft) 100,00 %
01.10.2021 20:34 15,3 C 14,4 C 11,1 C 78 % 1014,4 hPa 0,0 l/m 0 min 0 min 0 W/m 3,2 km/h (1 Bft) 97,87 %
01.10.2021 20:36 15,3 C 14,4 C 11,1 C 78 % 1014,3 hPa 0,0 l/m 0 min 2 min 0 W/m 3,2 km/h (1 Bft) 100,00 %
01.10.2021 20:38 15,3 C 14,4 C 11,1 C 78 % 1014,4 hPa 0,0 l/m 0 min 0 min 0 W/m 3,2 km/h (1 Bft) 100,00 %
01.10.2021 20:40 15,3 C 14,4 C 11,1 C 79 % 1014,4 hPa 0,0 l/m 0 min 2 min 0 W/m 6,4 km/h (2 Bft) 100,00 %
01.10.2021 20:42 15,2 C 14,4 C 11,1 C 79 % 1014,4 hPa 0,0 l/m 0 min 2 min 0 W/m 3,2 km/h (1 Bft) 95,74 %
01.10.2021 20:44 15,2 C 14,4 C 11,1 C 79 % 1014,4 hPa 0,0 l/m 0 min 2 min 0 W/m 3,2 km/h (1 Bft) 100,00 %
01.10.2021 20:46 15,1 C 14,4 C 11,1 C 79 % 1014,5 hPa 0,2 l/m 0 min 2 min 0 W/m 6,4 km/h (2 Bft) 100,00 %
01.10.2021 20:48 15,1 C 13,9 C 11,1 C 80 % 1014,4 hPa 0,0 l/m 0 min 2 min 0 W/m 9,7 km/h (2 Bft) 97,87 %
01.10.2021 20:50 15,1 C 13,9 C 11,1 C 80 % 1014,5 hPa 0,0 l/m 0 min 2 min 0 W/m 3,2 km/h (1 Bft) 95,74 %
01.10.2021 20:52 15,0 C 13,9 C 10,6 C 80 % 1014,4 hPa 0,0 l/m 0 min 2 min 0 W/m 6,4 km/h (2 Bft) 97,87 %
01.10.2021 20:54 15,0 C 13,9 C 10,6 C 80 % 1014,5 hPa 0,0 l/m 0 min 2 min 0 W/m 3,2 km/h (1 Bft) 95,74 %
01.10.2021 20:56 15,0 C 13,9 C 10,6 C 80 % 1014,5 hPa 0,0 l/m 0 min 2 min 0 W/m 6,4 km/h (2 Bft) 95,65 %
01.10.2021 20:58 15,0 C 13,9 C 10,6 C 81 % 1014,4 hPa 0,0 l/m 0 min 2 min 0 W/m 3,2 km/h (1 Bft) 97,87 %
01.10.2021 21:00 14,9 C 13,9 C 10,6 C 81 % 1014,5 hPa 0,0 l/m 0 min 2 min 0 W/m 6,4 km/h (2 Bft) 97,87 %
01.10.2021 21:02 14,9 C 13,9 C 10,6 C 82 % 1014,4 hPa 0,0 l/m 0 min 2 min 0 W/m 3,2 km/h (1 Bft) 95,74 %
01.10.2021 21:04 14,9 C 13,9 C 10,6 C 82 % 1014,4 hPa 0,2 l/m 0 min 2 min 0 W/m 9,7 km/h (2 Bft) 97,92 %
01.10.2021 21:06 14,9 C 13,3 C 10,6 C 82 % 1014,5 hPa 0,0 l/m 0 min 2 min 0 W/m 3,2 km/h (1 Bft) 95,65 %
01.10.2021 21:08 14,8 C 13,3 C 10,6 C 82 % 1014,5 hPa 0,0 l/m 0 min 2 min 0 W/m 3,2 km/h (1 Bft) 95,74 %
01.10.2021 21:10 14,8 C 13,3 C 10,6 C 83 % 1014,5 hPa 0,0 l/m 0 min 2 min 0 W/m 0,0 km/h (0 Bft) 93,62 %
01.10.2021 21:12 14,8 C 13,3 C 10,6 C 83 % 1014,5 hPa 0,0 l/m 0 min 2 min 0 W/m 3,2 km/h (1 Bft) 97,87 %
01.10.2021 21:14 14,7 C 13,3 C 10,6 C 84 % 1014,5 hPa 0,0 l/m 0 min 2 min 0 W/m 0,0 km/h (0 Bft) 95,74 %
01.10.2021 21:16 14,6 C 13,3 C 10,6 C 84 % 1014,5 hPa 0,0 l/m 0 min 2 min 0 W/m 0,0 km/h (0 Bft) 97,87 %
01.10.2021 21:18 14,6 C 13,3 C 10,6 C 84 % 1014,5 hPa 0,0 l/m 0 min 2 min 0 W/m 3,2 km/h (1 Bft) 97,83 %
01.10.2021 21:20 14,5 C 13,3 C 10,0 C 84 % 1014,4 hPa 0,0 l/m 0 min 0 min 0 W/m 3,2 km/h (1 Bft) 95,74 %
01.10.2021 21:22 14,5 C 13,3 C 10,6 C 84 % 1014,4 hPa 0,0 l/m 0 min 0 min 0 W/m 3,2 km/h (1 Bft) 95,74 %
01.10.2021 21:24 14,5 C 13,3 C 10,0 C 84 % 1014,3 hPa 0,0 l/m 0 min 0 min 0 W/m 0,0 km/h (0 Bft) 93,62 %
01.10.2021 21:26 14,4 C 13,3 C 10,0 C 84 % 1014,3 hPa 0,0 l/m 0 min 2 min 0 W/m 3,2 km/h (1 Bft) 97,87 %
01.10.2021 21:28 14,4 C 13,3 C 10,0 C 84 % 1014,3 hPa 0,0 l/m 0 min 2 min 0 W/m 6,4 km/h (2 Bft) 97,87 %
01.10.2021 21:30 14,4 C 13,3 C 10,0 C 84 % 1014,3 hPa 0,0 l/m 0 min 2 min 0 W/m 3,2 km/h (1 Bft) 95,65 %
01.10.2021 21:32 14,4 C 13,3 C 10,0 C 84 % 1014,4 hPa 0,0 l/m 0 min 2 min 0 W/m 3,2 km/h (1 Bft) 97,87 %
01.10.2021 21:34 14,3 C 13,3 C 10,0 C 84 % 1014,3 hPa 0,0 l/m 0 min 2 min 0 W/m 3,2 km/h (1 Bft) 95,74 %
01.10.2021 21:36 14,2 C 13,3 C 10,0 C 84 % 1014,3 hPa 0,0 l/m 0 min 2 min 0 W/m 3,2 km/h (1 Bft) 92,45 %
01.10.2021 21:38 14,2 C 13,3 C 10,0 C 84 % 1014,3 hPa 0,2 l/m 0 min 2 min 0 W/m 3,2 km/h (1 Bft) 93,62 %
01.10.2021 21:40 14,2 C 13,3 C 10,0 C 84 % 1014,3 hPa 0,0 l/m 0 min 2 min 0 W/m 3,2 km/h (1 Bft) 93,48 %
01.10.2021 21:42 14,2 C 12,8 C 10,0 C 85 % 1014,3 hPa 0,0 l/m 0 min 2 min 0 W/m 3,2 km/h (1 Bft) 95,74 %
01.10.2021 21:44 14,2 C 12,8 C 10,0 C 85 % 1014,2 hPa 0,0 l/m 0 min 2 min 0 W/m 3,2 km/h (1 Bft) 93,62 %
01.10.2021 21:46 14,2 C 12,8 C 10,0 C 85 % 1014,3 hPa 0,0 l/m 0 min 2 min 0 W/m 0,0 km/h (0 Bft) 97,56 %
01.10.2021 21:48 14,2 C 12,8 C 10,0 C 85 % 1014,3 hPa 0,0 l/m 0 min 2 min 0 W/m 3,2 km/h (1 Bft) 93,62 %
01.10.2021 21:50 14,2 C 12,8 C 10,0 C 85 % 1014,3 hPa 0,0 l/m 0 min 2 min 0 W/m 3,2 km/h (1 Bft) 93,62 %
01.10.2021 21:52 14,1 C 12,8 C 10,0 C 85 % 1014,2 hPa 0,0 l/m 0 min 2 min 0 W/m 3,2 km/h (1 Bft) 95,65 %
01.10.2021 21:54 14,1 C 12,8 C 10,0 C 85 % 1014,2 hPa 0,0 l/m 0 min 2 min 0 W/m 3,2 km/h (1 Bft) 96,23 %
01.10.2021 21:56 14,1 C 12,8 C 10,0 C 85 % 1014,2 hPa 0,0 l/m 0 min 0 min 0 W/m 6,4 km/h (2 Bft) 95,74 %
01.10.2021 21:58 14,0 C 12,8 C 10,0 C 85 % 1014,2 hPa 0,0 l/m 0 min 0 min 0 W/m 3,2 km/h (1 Bft) 91,49 %
01.10.2021 22:00 14,0 C 12,8 C 10,0 C 86 % 1014,1 hPa 0,0 l/m 0 min 0 min 0 W/m 3,2 km/h (1 Bft) 95,74 %
01.10.2021 22:02 14,0 C 12,8 C 10,0 C 86 % 1014,1 hPa 0,0 l/m 0 min 0 min 0 W/m 3,2 km/h (1 Bft) 92,68 %
01.10.2021 22:04 14,0 C 12,8 C 10,0 C 86 % 1014,1 hPa 0,0 l/m 0 min 0 min 0 W/m 3,2 km/h (1 Bft) 97,83 %
01.10.2021 22:06 13,9 C 12,8 C 10,0 C 86 % 1014,0 hPa 0,0 l/m 0 min 0 min 0 W/m 3,2 km/h (1 Bft) 97,87 %
01.10.2021 22:08 13,9 C 12,8 C 10,0 C 86 % 1014,0 hPa 0,0 l/m 0 min 0 min 0 W/m 3,2 km/h (1 Bft) 100,00 %
01.10.2021 22:10 13,9 C 12,8 C 10,0 C 86 % 1014,0 hPa 0,0 l/m 0 min 0 min 0 W/m 3,2 km/h (1 Bft) 97,87 %
01.10.2021 22:12 13,9 C 12,8 C 10,0 C 86 % 1014,0 hPa 0,0 l/m 0 min 0 min 0 W/m 6,4 km/h (2 Bft) 97,87 %
01.10.2021 22:14 13,9 C 12,8 C 10,0 C 87 % 1014,0 hPa 0,0 l/m 0 min 0 min 0 W/m 3,2 km/h (1 Bft) 95,74 %
01.10.2021 22:16 13,9 C 12,8 C 10,0 C 86 % 1014,0 hPa 0,0 l/m 0 min 0 min 0 W/m 3,2 km/h (1 Bft) 97,83 %
01.10.2021 22:18 13,9 C 12,8 C 10,0 C 87 % 1014,1 hPa 0,0 l/m 0 min 0 min 0 W/m 0,0 km/h (0 Bft) 95,74 %
01.10.2021 22:20 13,8 C 12,8 C 10,0 C 87 % 1014,0 hPa 0,0 l/m 0 min 2 min 0 W/m 0,0 km/h (0 Bft) 100,00 %
01.10.2021 22:22 13,8 C 12,8 C 10,0 C 87 % 1014,0 hPa 0,0 l/m 0 min 0 min 0 W/m 6,4 km/h (2 Bft) 95,74 %
01.10.2021 22:24 13,8 C 12,8 C 10,0 C 87 % 1014,0 hPa 0,0 l/m 0 min 0 min 0 W/m 3,2 km/h (1 Bft) 97,87 %
01.10.2021 22:26 13,8 C 12,8 C 10,0 C 87 % 1014,0 hPa 0,0 l/m 0 min 0 min 0 W/m 3,2 km/h (1 Bft) 95,74 %
01.10.2021 22:28 13,8 C 12,8 C 10,0 C 87 % 1014,0 hPa 0,0 l/m 0 min 0 min 0 W/m 6,4 km/h (2 Bft) 97,87 %
01.10.2021 22:30 13,8 C 12,8 C 10,0 C 87 % 1014,0 hPa 0,0 l/m 0 min 0 min 0 W/m 3,2 km/h (1 Bft) 97,83 %
01.10.2021 22:32 13,7 C 12,8 C 10,0 C 87 % 1014,1 hPa 0,0 l/m 0 min 2 min 0 W/m 3,2 km/h (1 Bft) 100,00 %
01.10.2021 22:34 13,7 C 12,8 C 10,0 C 87 % 1014,0 hPa 0,0 l/m 0 min 0 min 0 W/m 3,2 km/h (1 Bft) 100,00 %
01.10.2021 22:36 13,7 C 12,8 C 10,0 C 88 % 1014,0 hPa 0,0 l/m 0 min 0 min 0 W/m 6,4 km/h (2 Bft) 97,87 %
01.10.2021 22:38 13,7 C 12,8 C 10,0 C 88 % 1014,0 hPa 0,0 l/m 0 min 0 min 0 W/m 3,2 km/h (1 Bft) 100,00 %
01.10.2021 22:40 13,6 C 12,8 C 10,0 C 88 % 1014,0 hPa 0,0 l/m 0 min 0 min 0 W/m 3,2 km/h (1 Bft) 100,00 %
01.10.2021 22:42 13,6 C 12,8 C 10,0 C 88 % 1014,0 hPa 0,0 l/m 0 min 0 min 0 W/m 6,4 km/h (2 Bft) 100,00 %
01.10.2021 22:44 13,6 C 12,8 C 10,6 C 88 % 1014,0 hPa 0,0 l/m 0 min 0 min 0 W/m 6,4 km/h (2 Bft) 100,00 %
01.10.2021 22:46 13,6 C 12,8 C 10,6 C 88 % 1014,1 hPa 0,0 l/m 0 min 0 min 0 W/m 3,2 km/h (1 Bft) 100,00 %
01.10.2021 22:48 13,6 C 12,8 C 10,6 C 88 % 1014,0 hPa 0,0 l/m 0 min 0 min 0 W/m 6,4 km/h (2 Bft) 100,00 %
01.10.2021 22:50 13,6 C 12,8 C 10,6 C 88 % 1014,1 hPa 0,0 l/m 0 min 0 min 0 W/m 6,4 km/h (2 Bft) 97,87 %
01.10.2021 22:52 13,6 C 12,8 C 10,6 C 88 % 1014,1 hPa 0,0 l/m 0 min 0 min 0 W/m 3,2 km/h (1 Bft) 100,00 %
01.10.2021 22:54 13,6 C 12,8 C 10,6 C 88 % 1014,0 hPa 0,0 l/m 0 min 0 min 0 W/m 3,2 km/h (1 Bft) 100,00 %
01.10.2021 22:56 13,6 C 12,8 C 10,6 C 88 % 1014,1 hPa 0,0 l/m 0 min 0 min 0 W/m 6,4 km/h (2 Bft) 97,56 %
01.10.2021 22:58 13,6 C 12,8 C 10,6 C 88 % 1014,0 hPa 0,0 l/m 0 min 0 min 0 W/m 6,4 km/h (2 Bft) 100,00 %
01.10.2021 23:00 13,6 C 12,8 C 10,6 C 88 % 1014,1 hPa 0,0 l/m 0 min 0 min 0 W/m 6,4 km/h (2 Bft) 100,00 %
01.10.2021 23:02 13,6 C 13,3 C 10,6 C 88 % 1014,1 hPa 0,0 l/m 0 min 0 min 0 W/m 6,4 km/h (2 Bft) 100,00 %
01.10.2021 23:04 13,6 C 12,8 C 10,6 C 88 % 1014,1 hPa 0,0 l/m 0 min 0 min 0 W/m 22,5 km/h (4 Bft) 100,00 %
01.10.2021 23:06 13,6 C 12,8 C 10,6 C 88 % 1014,1 hPa 0,0 l/m 0 min 0 min 0 W/m 9,7 km/h (2 Bft) 100,00 %
01.10.2021 23:08 13,6 C 12,8 C 10,6 C 88 % 1014,1 hPa 0,0 l/m 0 min 0 min 0 W/m 9,7 km/h (2 Bft) 100,00 %
01.10.2021 23:10 13,6 C 12,8 C 10,6 C 88 % 1014,1 hPa 0,0 l/m 0 min 0 min 0 W/m 22,5 km/h (4 Bft) 100,00 %
01.10.2021 23:12 13,6 C 12,8 C 10,6 C 88 % 1014,1 hPa 0,0 l/m 0 min 0 min 0 W/m 16,1 km/h (3 Bft) 100,00 %
01.10.2021 23:14 13,6 C 12,8 C 10,6 C 88 % 1014,1 hPa 0,0 l/m 0 min 0 min 0 W/m 12,9 km/h (3 Bft) 100,00 %
01.10.2021 23:16 13,6 C 12,8 C 10,6 C 88 % 1014,1 hPa 0,0 l/m 0 min 0 min 0 W/m 6,4 km/h (2 Bft) 100,00 %
01.10.2021 23:18 13,6 C 12,8 C 10,6 C 89 % 1014,1 hPa 0,0 l/m 0 min 0 min 0 W/m 9,7 km/h (2 Bft) 97,87 %
01.10.2021 23:20 13,6 C 12,8 C 10,6 C 89 % 1014,1 hPa 0,0 l/m 0 min 2 min 0 W/m 16,1 km/h (3 Bft) 97,87 %
01.10.2021 23:22 13,6 C 12,8 C 10,6 C 89 % 1014,0 hPa 0,0 l/m 0 min 0 min 0 W/m 16,1 km/h (3 Bft) 97,87 %
01.10.2021 23:24 13,6 C 12,8 C 10,6 C 89 % 1014,0 hPa 0,2 l/m 0 min 0 min 0 W/m 22,5 km/h (4 Bft) 97,87 %
01.10.2021 23:26 13,6 C 12,8 C 10,6 C 89 % 1014,0 hPa 0,0 l/m 0 min 0 min 0 W/m 16,1 km/h (3 Bft) 95,65 %
01.10.2021 23:28 13,6 C 12,8 C 10,6 C 89 % 1014,0 hPa 0,0 l/m 0 min 0 min 0 W/m 25,7 km/h (4 Bft) 95,74 %
01.10.2021 23:30 13,6 C 12,8 C 10,6 C 89 % 1014,0 hPa 0,0 l/m 0 min 0 min 0 W/m 12,9 km/h (3 Bft) 97,87 %
01.10.2021 23:32 13,6 C 12,8 C 10,6 C 89 % 1014,0 hPa 0,0 l/m 0 min 0 min 0 W/m 22,5 km/h (4 Bft) 97,87 %
01.10.2021 23:34 13,6 C 12,8 C 10,6 C 89 % 1014,1 hPa 0,0 l/m 0 min 0 min 0 W/m 19,3 km/h (3 Bft) 97,87 %
01.10.2021 23:36 13,6 C 12,8 C 10,6 C 90 % 1014,0 hPa 0,0 l/m 0 min 0 min 0 W/m 16,1 km/h (3 Bft) 97,87 %
01.10.2021 23:38 13,5 C 12,8 C 10,6 C 90 % 1014,1 hPa 0,0 l/m 0 min 0 min 0 W/m 19,3 km/h (3 Bft) 95,65 %
01.10.2021 23:40 13,5 C 12,8 C 10,6 C 90 % 1014,1 hPa 0,0 l/m 0 min 0 min 0 W/m 9,7 km/h (2 Bft) 97,87 %
01.10.2021 23:42 13,5 C 12,8 C 10,6 C 90 % 1014,1 hPa 0,0 l/m 0 min 0 min 0 W/m 16,1 km/h (3 Bft) 97,87 %
01.10.2021 23:44 13,5 C 12,2 C 10,6 C 90 % 1014,1 hPa 0,0 l/m 0 min 2 min 0 W/m 12,9 km/h (3 Bft) 97,87 %
01.10.2021 23:46 13,5 C 12,2 C 10,6 C 90 % 1014,1 hPa 0,2 l/m 0 min 2 min 0 W/m 12,9 km/h (3 Bft) 97,87 %
01.10.2021 23:48 13,5 C 12,2 C 10,6 C 91 % 1014,1 hPa 0,0 l/m 0 min 2 min 0 W/m 12,9 km/h (3 Bft) 95,74 %
01.10.2021 23:50 13,5 C 12,2 C 10,6 C 91 % 1014,1 hPa 0,0 l/m 0 min 2 min 0 W/m 6,4 km/h (2 Bft) 100,00 %
01.10.2021 23:52 13,4 C 12,2 C 10,6 C 91 % 1014,1 hPa 0,2 l/m 0 min 0 min 0 W/m 19,3 km/h (3 Bft) 100,00 %
01.10.2021 23:54 13,4 C 12,2 C 10,6 C 91 % 1014,0 hPa 0,0 l/m 0 min 0 min 0 W/m 6,4 km/h (2 Bft) 97,87 %
01.10.2021 23:56 13,4 C 12,2 C 10,6 C 91 % 1014,0 hPa 0,0 l/m 0 min 0 min 0 W/m 16,1 km/h (3 Bft) 95,74 %
01.10.2021 23:58 13,4 C 12,2 C 10,6 C 92 % 1013,9 hPa 0,2 l/m 0 min 0 min 0 W/m 12,9 km/h (3 Bft) 97,87 %
_ Min-Zeit 04:42 04:10 04:12 15:02 23:58 - - - - 21:10 02:32
Minimum _ 9,1 C 8,3 C 7,3 C 54 % 1013,9 hPa - - - - 0,0 km/h (0 Bft) 57,45 %
_ Max-Zeit 14:26 14:02 11:36 23:58 00:00 20:46 12:08 18:08 13:42 15:02 00:00
Maximum _ 19,9 C 25,0 C 21,1 C 92 % 1022,1 hPa 0,2 l/m 4 min 4 min 657 W/m 48,3 km/h
S-SO (6 Bft)
100,00 %
Durchschnitt _ 13,9 C 13,7 C 11,5 C 76 % 1017,1 hPa #1,4 l/m #4:36 h #1:56 h 218 W/m 13,4 km/h (3 Bft) 97,62 %
© 2021 W. Hausmann